Return to Metar
METAR CYNL 041500Z AUTO 04006KT 9SM OVC004 M13/M15 A3027 RMK AO1 PRESRR SLP311
METAR CYNL 041400Z AUTO 04007KT 9SM OVC003 M13/M15 A3024 RMK AO1 PRESRR SLP298
SPECI CYNL 041317Z AUTO 04006KT 9SM BKN004 OVC049 M12/M14 A3022 RMK AO1 PRESRR SLP287
METAR CYNL 041300Z AUTO 04005KT 9SM FEW005 OVC049 M12/M14 A3021 RMK AO1 PRESRR SLP285
SPECI CYNL 041222Z AUTO 04004KT 9SM FEW003 OVC049 M11/M13 A3019 RMK AO1 PRESRR SLP272
METAR CYNL 041200Z AUTO 05004KT 9SM OVC047 M12/M14 A3019 RMK AO1 PRESRR SLP270
METAR CYNL 041100Z AUTO 00000KT 9SM BKN047 M14/M17 A3015 RMK AO1 PRESRR SLP256
SPECI CYNL 041004Z AUTO 05005KT 3SM CLR M15/M16 A3012 RMK AO1 PRESRR SLP243
SPECI CYNL 041003Z AUTO 05005KT 1SM CLR M15/M16 A3012 RMK AO1 PRESRR SLP243
SPECI CYNL 041002Z AUTO 05005KT 3/4SM CLR M15/M17 A3012 RMK AO1 PRESRR SLP244
SPECI CYNL 041001Z AUTO 05006KT 1SM CLR M16/M17 A3012 RMK AO1 PRESRR SLP244
METAR CYNL 041000Z AUTO 05006KT 2SM CLR M16/M18 A3012 RMK AO1 PRESRR SLP244
SPECI CYNL 040930Z AUTO 03005KT 9SM CLR M17/M18 A3010 RMK AO1 PRESRR SLP240
SPECI CYNL 040929Z AUTO 03005KT 1SM CLR M17/M18 A3010 RMK AO1 PRESRR SLP240
SPECI CYNL 040927Z AUTO 04005KT 1/2SM CLR M17/M19 A3010 RMK AO1 PRESRR SLP240
SPECI CYNL 040926Z AUTO 04005KT 2 1/2SM CLR M17/M20 A3010 RMK AO1 PRESRR SLP240
SPECI CYNL 040920Z AUTO 05004KT 7SM CLR M17/M19 A3010 RMK AO1 PRESRR SLP239
SPECI CYNL 040919Z AUTO 04004KT 1 1/4SM CLR M17/M19 A3010 RMK AO1 PRESRR SLP239
SPECI CYNL 040912Z AUTO 00000KT 5/8SM CLR M17/M19 A3009 RMK AO1 PRESRR SLP238
SPECI CYNL 040910Z AUTO 00000KT 1 1/4SM CLR M18/M20 A3009 RMK AO1 PRESRR SLP238
SPECI CYNL 040909Z AUTO 00000KT 2 1/2SM CLR M18/M20 A3009 RMK AO1 PRESRR SLP238
METAR CYNL 040900Z AUTO 05004KT 9SM CLR M18/M21 A3009 RMK AO1 PRESRR SLP236
METAR CYNL 040800Z AUTO 00000KT 9SM CLR M18/M20 A3006 RMK AO1 SLP228
METAR CYNL 040700Z AUTO 00000KT 9SM CLR M17/M20 A3004 RMK AO1 PRESRR SLP220
METAR CYNL 040600Z AUTO 00000KT 9SM CLR M16/M19 A3002 RMK AO1 PRESRR SLP218
METAR CYNL 040500Z AUTO 00000KT 9SM CLR M13/M16 A3000 RMK AO1 PRESRR SLP208
METAR CYNL 040400Z AUTO 06004KT 9SM CLR M13/M14 A2997 RMK AO1 PRESRR SLP204
METAR CYNL 040300Z AUTO 00000KT 9SM CLR M11/M13 A2995 RMK AO1 PRESRR SLP196
METAR CYNL 040200Z AUTO 00000KT 9SM CLR M09/M10 A2993 RMK AO1 PRESRR SLP188
METAR CYNL 040100Z AUTO 18002KT 9SM CLR M05/M08 A2990 RMK AO1 PRESRR SLP174
METAR CYNL 040000Z AUTO 18004KT 9SM CLR M02/M08 A2987 RMK AO1 PRESRR SLP160
METAR CYNL 032300Z AUTO 21004KT 9SM CLR 01/M07 A2984 RMK AO1 PRESRR SLP144
METAR CYNL 032200Z AUTO 19005KT 9SM CLR 01/M07 A2981 RMK AO1 PRESRR SLP133
METAR CYNL 032100Z AUTO 16004KT 9SM CLR 00/M07 A2978 RMK AO1 SLP126
METAR CYNL 032000Z AUTO 00000KT 9SM CLR 01/M08 A2976 RMK AO1 PRESRR SLP120
METAR CYNL 031900Z AUTO 00000KT 9SM CLR M03/M09 A2974 RMK AO1 PRESRR SLP118
METAR CYNL 031800Z AUTO 18005KT 9SM CLR M05/M10 A2972 RMK AO1 PRESRR SLP114
METAR CYNL 031700Z AUTO 17006KT 9SM FEW092 M09/M12 A2969 RMK AO1 SLP111
METAR CYNL 031600Z AUTO 18007KT 9SM BKN090 M11/M14 A2969 RMK AO1 SLP111
METAR CYNL 031500Z AUTO 16004KT 9SM FEW092 M13/M15 A2968 RMK AO1 SLP110
METAR CYNL 031400Z AUTO 19007KT 9SM BKN096 M14/M16 A2967 RMK AO1 SLP109
METAR CYNL 031300Z AUTO 17005KT 9SM CLR M14/M16 A2965 RMK AO1 SLP103
METAR CYNL 031200Z AUTO 17007KT 9SM CLR M13/M15 A2965 RMK AO1 PRESRR SLP099
SPECI CYNL 031140Z AUTO 18007KT 9SM SCT011 M12/M15 A2964 RMK AO1 SLP098
METAR CYNL 031100Z AUTO 17004KT 9SM OVC011 M12/M14 A2963 RMK AO1 SLP092
METAR CYNL 031000Z AUTO 17006KT 9SM OVC013 M12/M15 A2963 RMK AO1 SLP093
SPECI CYNL 030903Z AUTO 17007KT 9SM FEW003 OVC014 M13/M15 A2962 RMK AO1 SLP092
METAR CYNL 030900Z AUTO 17007KT 9SM FEW003 OVC015 M13/M15 A2963 RMK AO1 SLP092
SPECI CYNL 030838Z AUTO 17008KT 9SM FEW005 OVC015 M13/M16 A2963 RMK AO1 SLP093
SPECI CYNL 030825Z AUTO 17007KT 9SM FEW003 OVC014 M13/M16 A2963 RMK AO1 SLP094
SPECI CYNL 030804Z AUTO 17007KT 9SM FEW006 OVC015 M13/M16 A2962 RMK AO1 SLP092
METAR CYNL 030800Z AUTO 17007KT 9SM FEW012 OVC015 M13/M16 A2962 RMK AO1 SLP092
METAR CYNL 030700Z AUTO 16005KT 9SM OVC020 M14/M17 A2962 RMK AO1 SLP093
METAR CYNL 030600Z AUTO 14005KT 9SM FEW011 SCT019 BKN024 M16/M19 A2962 RMK AO1 SLP094
SPECI CYNL 030559Z AUTO 14005KT 9SM FEW011 SCT019 BKN025 M16/M19 A2962 RMK AO1 SLP094
SPECI CYNL 030551Z AUTO 13004KT 9SM VV020 M16/M19 A2962 RMK AO1 SLP095
SPECI CYNL 030537Z AUTO 14006KT 9SM FEW012 SCT023 OVC088 M16/M19 A2962 RMK AO1 SLP095
SPECI CYNL 030534Z AUTO 14005KT 3SM SCT011 BKN023 OVC088 M16/M19 A2962 RMK AO1 SLP095
SPECI CYNL 030532Z AUTO 13005KT 2 1/2SM SCT011 BKN023 OVC090 M16/M19 A2962 RMK AO1 SLP095
SPECI CYNL 030531Z AUTO 13005KT 2 1/2SM VV011 M16/M19 A2962 RMK AO1 SLP095
SPECI CYNL 030529Z AUTO 13005KT 3SM VV014 M16/M19 A2962 RMK AO1 SLP095
SPECI CYNL 030502Z AUTO 15006KT 4SM VV015 M16/M19 A2962 RMK AO1 SLP096
METAR CYNL 030500Z AUTO 15006KT 3SM VV014 M16/M19 A2962 RMK AO1 SLP096
SPECI CYNL 030459Z AUTO 15006KT 3SM VV014 M16/M19 A2962 RMK AO1 SLP097
SPECI CYNL 030456Z AUTO 15005KT 2 1/2SM VV014 M16/M19 A2962 RMK AO1 PRESFR SLP098
SPECI CYNL 030455Z AUTO 15006KT 3SM VV015 M16/M19 A2962 RMK AO1 PRESFR SLP098
SPECI CYNL 030450Z AUTO 15006KT 2 1/2SM VV017 M16/M19 A2962 RMK AO1 PRESFR SLP098
SPECI CYNL 030442Z AUTO 15008KT 3SM VV015 M16/M19 A2962 RMK AO1 PRESFR SLP098
SPECI CYNL 030439Z AUTO 15007KT 3SM VV014 M16/M19 A2962 RMK AO1 PRESFR SLP098
SPECI CYNL 030437Z AUTO 15007KT 3SM VV016 M16/M19 A2962 RMK AO1 PRESFR SLP098
SPECI CYNL 030403Z AUTO 15009KT 2SM VV015 M16/M19 A2962 RMK AO1 PRESFR SLP099
SPECI CYNL 030402Z AUTO 15007KT 2SM VV014 M16/M19 A2962 RMK AO1 PRESFR SLP100
METAR CYNL 030400Z AUTO 15008KT 1 3/4SM VV013 M16/M19 A2962 RMK AO1 PRESFR SLP100
SPECI CYNL 030354Z AUTO 15009KT 1 3/4SM VV014 M16/M19 A2963 RMK AO1 SLP106
SPECI CYNL 030348Z AUTO 15010KT 1 1/2SM VV015 M16/M19 A2963 RMK AO1 SLP106
SPECI CYNL 030344Z AUTO 15009KT 1 1/4SM VV015 M16/M19 A2963 RMK AO1 SLP106
SPECI CYNL 030332Z AUTO 14008KT 1 3/4SM VV018 M16/M19 A2963 RMK AO1 SLP108
SPECI CYNL 030331Z AUTO 14008KT 2SM VV017 M16/M19 A2963 RMK AO1 SLP108
SPECI CYNL 030328Z AUTO 13008KT 1 3/4SM VV015 M16/M19 A2963 RMK AO1 SLP108
SPECI CYNL 030323Z AUTO 15011KT 2SM VV013 M15/M19 A2964 RMK AO1 SLP109
SPECI CYNL 030318Z AUTO 15008KT 1 3/4SM VV014 M15/M19 A2964 RMK AO1 SLP109
SPECI CYNL 030311Z AUTO 16008G16KT 1 3/4SM VV019 M16/M19 A2964 RMK AO1 SLP110
METAR CYNL 030300Z AUTO 16009G16KT 2 1/2SM VV021 M16/M19 A2964 RMK AO1 SLP112
SPECI CYNL 030255Z AUTO 16012KT 2 1/2SM VV021 M16/M19 A2965 RMK AO1 SLP115
SPECI CYNL 030253Z AUTO 16009KT 3SM VV020 M16/M19 A2965 RMK AO1 SLP116
SPECI CYNL 030246Z AUTO 16009KT 2SM VV017 M16/M19 A2965 RMK AO1 SLP117
SPECI CYNL 030244Z AUTO 16008KT 1 1/2SM VV016 M16/M19 A2965 RMK AO1 SLP117
SPECI CYNL 030237Z AUTO 16009G17KT 1 1/4SM VV017 M16/M19 A2965 RMK AO1 SLP117
SPECI CYNL 030236Z AUTO 16008G17KT 1 3/4SM VV020 M16/M19 A2965 RMK AO1 SLP117
SPECI CYNL 030235Z AUTO 16008G17KT 2SM VV022 M16/M19 A2965 RMK AO1 SLP117
SPECI CYNL 030234Z AUTO 16008G17KT 2 1/2SM VV025 M16/M19 A2965 RMK AO1 SLP117
SPECI CYNL 030230Z AUTO 16009G17KT 3SM VV025 M16/M19 A2965 RMK AO1 SLP118
SPECI CYNL 030229Z AUTO 17010G17KT 3SM VV022 M16/M19 A2965 RMK AO1 SLP118
SPECI CYNL 030228Z AUTO 17011G17KT 2SM VV019 M16/M19 A2965 RMK AO1 SLP118
SPECI CYNL 030227Z AUTO 17009G17KT 1 3/4SM VV018 M16/M19 A2965 RMK AO1 SLP118
SPECI CYNL 030226Z AUTO 17009G16KT 1 1/4SM VV016 M16/M19 A2965 RMK AO1 SLP118
SPECI CYNL 030225Z AUTO 17011G16KT 1 1/4SM VV014 M16/M19 A2965 RMK AO1 SLP118
SPECI CYNL 030223Z AUTO 16010G16KT 1 1/4SM VV016 M16/M19 A2965 RMK AO1 SLP118
SPECI CYNL 030221Z AUTO 16009G15KT 1 1/2SM VV018 M16/M19 A2965 RMK AO1 SLP118
SPECI CYNL 030220Z AUTO 16010KT 1 1/4SM VV017 M16/M19 A2965 RMK AO1 SLP118
SPECI CYNL 030219Z AUTO 16010G15KT 1 3/4SM VV018 M16/M19 A2965 RMK AO1 SLP118
SPECI CYNL 030218Z AUTO 16007KT 2 1/2SM VV022 M16/M19 A2965 RMK AO1 SLP118
SPECI CYNL 030217Z AUTO 16007KT 3SM VV026 M16/M19 A2965 RMK AO1 SLP118
SPECI CYNL 030211Z AUTO 16009KT 3SM VV019 M16/M19 A2966 RMK AO1 SLP119
SPECI CYNL 030210Z AUTO 16009KT 2SM VV014 M16/M19 A2966 RMK AO1 SLP119
SPECI CYNL 030207Z AUTO 16009KT 1 3/4SM VV012 M16/M19 A2966 RMK AO1 SLP119
SPECI CYNL 030204Z AUTO 16010KT 2SM VV014 M16/M19 A2966 RMK AO1 SLP119
METAR CYNL 030200Z AUTO 16009KT 2 1/2SM VV018 M16/M19 A2966 RMK AO1 SLP119
SPECI CYNL 030159Z AUTO 16008KT 3SM VV019 M16/M19 A2966 RMK AO1 SLP124
SPECI CYNL 030156Z AUTO 16007KT 2SM VV019 M16/M19 A2966 RMK AO1 SLP128
SPECI CYNL 030153Z AUTO 15010KT 1 3/4SM VV019 M16/M19 A2966 RMK AO1 SLP128
SPECI CYNL 030151Z AUTO 16009G17KT 2 1/2SM VV021 M16/M19 A2966 RMK AO1 SLP128
SPECI CYNL 030147Z AUTO 16009G17KT 3SM VV024 M16/M19 A2966 RMK AO1 SLP128
SPECI CYNL 030142Z AUTO 16012G17KT 4SM VV025 M16/M19 A2966 RMK AO1 SLP128
SPECI CYNL 030138Z AUTO 16009G15KT 3SM VV020 M16/M19 A2966 RMK AO1 SLP128
SPECI CYNL 030137Z AUTO 16010G15KT 2 1/2SM VV018 M16/M19 A2966 RMK AO1 SLP128
SPECI CYNL 030136Z AUTO 16011KT 1 3/4SM VV016 M16/M19 A2966 RMK AO1 SLP128
SPECI CYNL 030135Z AUTO 16010G15KT 1 1/2SM VV014 M16/M19 A2966 RMK AO1 SLP128
SPECI CYNL 030125Z AUTO 15008KT 1 1/4SM VV014 M16/M19 A2966 RMK AO1 SLP128
SPECI CYNL 030123Z AUTO 15008KT 1 3/4SM VV015 M16/M19 A2965 RMK AO1 SLP128
SPECI CYNL 030115Z AUTO 15009KT 2 1/2SM VV016 M16/M19 A2965 RMK AO1 SLP128
SPECI CYNL 030114Z AUTO 14008KT 3SM VV015 M16/M19 A2965 RMK AO1 SLP128
SPECI CYNL 030113Z AUTO 14009KT 2 1/2SM VV014 M16/M19 A2965 RMK AO1 SLP127
SPECI CYNL 030111Z AUTO 15009KT 2SM VV015 M16/M19 A2965 RMK AO1 SLP127
SPECI CYNL 030110Z AUTO 15008KT 1 3/4SM VV016 M16/M19 A2965 RMK AO1 SLP127
SPECI CYNL 030105Z AUTO 15010G16KT 2SM VV024 M16/M20 A2965 RMK AO1 SLP128
SPECI CYNL 030101Z AUTO 15010G16KT 8SM BKN029 M16/M20 A2965 RMK AO1 SLP128
METAR CYNL 030100Z AUTO 15012KT 9SM SCT029 BKN038 M16/M20 A2965 RMK AO1 SLP127
SPECI CYNL 030051Z AUTO 15010G17KT 9SM SCT027 M16/M20 A2965 RMK AO1 SLP128
SPECI CYNL 030045Z AUTO 15011G16KT 9SM VV025 M16/M20 A2965 RMK AO1 SLP128
METAR CYNL 030000Z AUTO 14008KT 9SM CLR M16/M20 A2967 RMK AO1 SLP135
METAR CYNL 022300Z AUTO 16008KT 9SM CLR M15/M20 A2969 RMK AO1 SLP136
METAR CYNL 022200Z AUTO 16007KT 9SM CLR M16/M20 A2970 RMK AO1 PRESFR SLP139
METAR CYNL 022100Z AUTO 18009KT 9SM FEW160 M16/M21 A2972 RMK AO1 SLP144
METAR CYNL 022000Z AUTO 15008KT 9SM FEW100 SCT190 M16/M21 A2972 RMK AO1 SLP138
METAR CYNL 021900Z AUTO 14006KT 9SM SCT096 M17/M21 A2973 RMK AO1 SLP147
METAR CYNL 021800Z AUTO 16006KT 9SM CLR M17/M22 A2974 RMK AO1 SLP150
METAR CYNL 021700Z AUTO 17005KT 9SM CLR M19/M23 A2975 RMK AO1 PRESRR SLP157
METAR CYNL 021600Z AUTO 11002KT 9SM CLR M23/M27 A2973 RMK AO1 SLP152
METAR CYNL 021500Z AUTO 00000KT 7SM SCT082 M25/M29 A2972 RMK AO1 SLP151
SPECI CYNL 021455Z AUTO 06002KT 3SM BKN082 M26/M29 A2973 RMK AO1 PRESRR SLP149
SPECI CYNL 021453Z AUTO 07003KT 1SM BKN082 M26/M30 A2972 RMK AO1 PRESRR SLP149
SPECI CYNL 021452Z AUTO 07003KT 1 1/2SM BKN082 M26/M30 A2972 RMK AO1 PRESRR SLP148
METAR CYNL 021400Z AUTO 31002KT 9SM SCT084 M33/M37 A2972 RMK AO1 PRESRR SLP157
METAR CYNL 021300Z AUTO 00000KT 9SM CLR M33/M38 A2970 RMK AO1 SLP147
METAR CYNL 021200Z AUTO ///// 9SM CLR M31/M36 A2969 RMK AO1 PRESRR SLP142
METAR CYNL 021100Z AUTO 35002KT 9SM CLR M31/M35 A2965 RMK AO1 SLP127
METAR CYNL 021000Z AUTO 00000KT 9SM CLR M28/M32 A2964 RMK AO1 SLP118
METAR CYNL 020900Z AUTO 05003KT 9SM FEW092 M24/M27 A2962 RMK AO1 PRESRR SLP106
METAR CYNL 020800Z AUTO 02003KT 9SM BKN080 M26/M30 A2959 RMK AO1 SLP101
METAR CYNL 020700Z AUTO 03004KT 9SM CLR M26/M30 A2958 RMK AO1 SLP097
METAR CYNL 020600Z AUTO 03003KT 9SM CLR M26/M29 A2958 RMK AO1 SLP098
METAR CYNL 020500Z AUTO 03003KT 9SM CLR M25/M28 A2957 RMK AO1 SLP095
METAR CYNL 020400Z AUTO 03003KT 9SM CLR M23/M26 A2957 RMK AO1 SLP090
METAR CYNL 020300Z AUTO 05004KT 9SM SCT047 M20/M23 A2957 RMK AO1 SLP090
METAR CYNL 020200Z AUTO 07003KT 9SM OVC047 M18/M22 A2958 RMK AO1 SLP094
METAR CYNL 020100Z AUTO 09002KT 9SM OVC045 M18/M22 A2958 RMK AO1 SLP098
SPECI CYNL 020038Z AUTO 10004KT 9SM SCT022 OVC044 M18/M22 A2959 RMK AO1 SLP101
METAR CYNL 020000Z AUTO 14004KT 9SM VV023 M18/M22 A2960 RMK AO1 SLP104
SPECI CYNL 012358Z AUTO 14004KT 8SM VV024 M18/M22 A2960 RMK AO1 SLP106
SPECI CYNL 012356Z AUTO 13005KT 7SM VV025 M18/M22 A2960 RMK AO1 SLP106
SPECI CYNL 012350Z AUTO 15004KT 9SM VV018 M18/M22 A2960 RMK AO1 SLP107
METAR CYNL 012300Z AUTO 14006KT 9SM OVC045 M18/M22 A2961 RMK AO1 SLP110
METAR CYNL 012200Z AUTO 11006KT 9SM FEW042 OVC050 M18/M22 A2961 RMK AO1 SLP109
SPECI CYNL 012121Z AUTO 13006KT 9SM FEW008 SCT018 OVC056 M17/M21 A2963 RMK AO1 PRESFR SLP118
SPECI CYNL 012118Z AUTO 14006KT 9SM FEW008 SCT012 BKN028 M17/M21 A2962 RMK AO1 PRESFR SLP118
SPECI CYNL 012113Z AUTO 15006KT 8SM FEW008 SCT012 BKN018 M17/M21 A2962 RMK AO1 PRESFR SLP117
SPECI CYNL 012111Z AUTO 14006KT 7SM VV016 M17/M22 A2962 RMK AO1 PRESFR SLP118
SPECI CYNL 012110Z AUTO 14005KT 6SM VV014 M17/M22 A2962 RMK AO1 PRESFR SLP119
SPECI CYNL 012106Z AUTO 15004KT 4SM VV015 M18/M22 A2963 RMK AO1 PRESFR SLP119
SPECI CYNL 012101Z AUTO 13006KT 3SM VV012 M18/M22 A2962 RMK AO1 PRESFR SLP116
METAR CYNL 012100Z AUTO 13006KT 2 1/2SM VV012 M18/M22 A2962 RMK AO1 PRESFR SLP116
SPECI CYNL 012057Z AUTO 13008KT 2 1/2SM VV012 M18/M22 A2961 RMK AO1 SLP118
SPECI CYNL 012054Z AUTO 14009KT 1 1/2SM VV014 M18/M22 A2961 RMK AO1 SLP117
SPECI CYNL 012051Z AUTO 14010KT 1 3/4SM VV017 M18/M22 A2961 RMK AO1 SLP116
SPECI CYNL 012046Z AUTO 13007KT 2 1/2SM VV020 M18/M22 A2962 RMK AO1 SLP118
SPECI CYNL 012042Z AUTO 12009KT 3SM VV018 M18/M22 A2962 RMK AO1 SLP120
SPECI CYNL 012040Z AUTO 12008KT 2 1/2SM VV015 M18/M22 A2962 RMK AO1 SLP120
SPECI CYNL 012038Z AUTO 11008KT 3SM VV011 M18/M22 A2962 RMK AO1 SLP120
SPECI CYNL 012036Z AUTO 13008KT 3SM VV008 M18/M22 A2962 RMK AO1 SLP120
SPECI CYNL 012034Z AUTO 13008KT 2SM VV008 M18/M22 A2962 RMK AO1 SLP119
SPECI CYNL 012028Z AUTO 12009KT 1 1/2SM VV007 M18/M22 A2963 RMK AO1 SLP122
SPECI CYNL 012022Z AUTO 12008KT 1SM VV007 M18/M22 A2963 RMK AO1 SLP122
SPECI CYNL 012017Z AUTO 13007KT 3/4SM VV008 M18/M22 A2964 RMK AO1 SLP126
SPECI CYNL 012003Z AUTO 12005KT 1SM VV007 M18/M22 A2965 RMK AO1 SLP130
SPECI CYNL 012002Z AUTO 12005KT 3/4SM VV007 M18/M22 A2965 RMK AO1 SLP130
SPECI CYNL 012001Z AUTO 11005KT 1SM VV007 M18/M22 A2965 RMK AO1 SLP131
METAR CYNL 012000Z AUTO 12005KT 3/4SM VV007 M18/M22 A2965 RMK AO1 SLP131
SPECI CYNL 011957Z AUTO 10005KT 3/4SM VV008 M18/M22 A2965 RMK AO1 PRESFR SLP132
SPECI CYNL 011955Z AUTO 11005KT 1SM VV009 M18/M22 A2966 RMK AO1 PRESFR SLP133
SPECI CYNL 011945Z AUTO 12006KT 1SM VV011 M19/M22 A2965 RMK AO1 PRESFR SLP131
SPECI CYNL 011944Z AUTO 13006KT 3/4SM VV011 M19/M22 A2965 RMK AO1 PRESFR SLP131
SPECI CYNL 011943Z AUTO 14007KT 5/8SM VV011 M19/M23 A2965 RMK AO1 PRESFR SLP131
SPECI CYNL 011942Z AUTO 14008KT 3/4SM VV012 M19/M23 A2965 RMK AO1 PRESFR SLP131
SPECI CYNL 011940Z AUTO 13007KT 1 1/4SM VV013 M19/M23 A2965 RMK AO1 PRESFR SLP132
SPECI CYNL 011939Z AUTO 13007KT 2SM VV012 M19/M23 A2965 RMK AO1 PRESFR SLP132
SPECI CYNL 011937Z AUTO 14006KT 3SM VV011 M19/M22 A2966 RMK AO1 PRESFR SLP134
SPECI CYNL 011936Z AUTO 14006KT 2 1/2SM VV010 M19/M22 A2966 RMK AO1 PRESFR SLP134
SPECI CYNL 011934Z AUTO 12006KT 2SM VV007 M19/M22 A2965 RMK AO1 PRESFR SLP133
SPECI CYNL 011932Z AUTO 13006KT 1 1/2SM VV006 M19/M22 A2966 RMK AO1 PRESFR SLP134
SPECI CYNL 011931Z AUTO 14005KT 1 1/4SM VV006 M19/M22 A2966 RMK AO1 PRESFR SLP135
SPECI CYNL 011930Z AUTO 14006KT 3/4SM VV005 M19/M22 A2966 RMK AO1 PRESFR SLP136
SPECI CYNL 011905Z AUTO 13007KT 1/2SM VV009 M19/M23 A2966 RMK AO1 PRESFR SLP137
METAR CYNL 011900Z AUTO 13006KT 5/8SM VV011 M19/M23 A2967 RMK AO1 PRESFR SLP140
SPECI CYNL 011858Z AUTO 11006KT 5/8SM VV011 M19/M23 A2967 RMK AO1 PRESFR SLP140
SPECI CYNL 011856Z AUTO 13005KT 3/4SM VV012 M19/M23 A2967 RMK AO1 PRESFR SLP140
SPECI CYNL 011848Z AUTO 13005KT 1 1/4SM VV014 M19/M23 A2967 RMK AO1 PRESFR SLP140
SPECI CYNL 011844Z AUTO 14007KT 1 1/4SM VV017 M19/M24 A2967 RMK AO1 PRESFR SLP141
SPECI CYNL 011843Z AUTO 14007KT 1 1/2SM VV018 M20/M24 A2967 RMK AO1 PRESFR SLP141
SPECI CYNL 011842Z AUTO 14007KT 1 1/4SM VV018 M20/M24 A2968 RMK AO1 PRESFR SLP142
SPECI CYNL 011837Z AUTO 13008KT 1 3/4SM VV021 M20/M24 A2968 RMK AO1 PRESFR SLP142
SPECI CYNL 011831Z AUTO 12007KT 2SM VV020 M20/M24 A2967 RMK AO1 PRESFR SLP141
SPECI CYNL 011828Z AUTO 12006KT 1 1/2SM VV018 M20/M24 A2968 RMK AO1 PRESFR SLP142
SPECI CYNL 011827Z AUTO 12007KT 1 1/4SM VV016 M20/M24 A2968 RMK AO1 PRESFR SLP143
SPECI CYNL 011817Z AUTO 13008KT 1SM VV014 M20/M24 A2969 RMK AO1 PRESFR SLP146
SPECI CYNL 011815Z AUTO 12008KT 1 1/4SM VV015 M20/M24 A2969 RMK AO1 PRESFR SLP147
SPECI CYNL 011807Z AUTO 13007KT 1 3/4SM VV015 M20/M24 A2969 RMK AO1 PRESFR SLP148
METAR CYNL 011800Z AUTO 13006KT 1 1/2SM VV011 M20/M24 A2970 RMK AO1 PRESFR SLP150
SPECI CYNL 011756Z AUTO 12007KT 1 1/2SM VV012 M20/M24 A2970 RMK AO1 PRESFR SLP150
SPECI CYNL 011747Z AUTO 11008KT 1 1/4SM VV014 M20/M25 A2970 RMK AO1 PRESFR SLP151
SPECI CYNL 011746Z AUTO 11007KT 1 1/2SM VV014 M20/M25 A2970 RMK AO1 PRESFR SLP151
SPECI CYNL 011741Z AUTO 11005KT 1 3/4SM VV017 M20/M25 A2970 RMK AO1 PRESFR SLP152
SPECI CYNL 011739Z AUTO 11009KT 2 1/2SM VV019 M20/M25 A2970 RMK AO1 PRESFR SLP152
SPECI CYNL 011734Z AUTO 10006KT 4SM VV024 M20/M25 A2971 RMK AO1 PRESFR SLP155
SPECI CYNL 011733Z AUTO 10006KT 5SM VV025 M20/M25 A2971 RMK AO1 PRESFR SLP155
METAR CYNL 011700Z AUTO 14007KT 9SM OVC082 M21/M26 A2973 RMK AO1 PRESFR SLP162
METAR CYNL 011600Z AUTO ///// 9SM OVC086 M23/M28 A2977 RMK AO1 PRESFR SLP176
METAR CYNL 011500Z AUTO 15004KT 9SM BKN100 M25/M31 A2982 RMK AO1 PRESFR SLP197
METAR CYNL 011400Z AUTO 15005KT 9SM BKN110 M26/M32 A2985 RMK AO1 PRESFR SLP208
METAR CYNL 011300Z AUTO 09003KT 9SM CLR M27/M33 A2990 RMK AO1 PRESFR SLP224
METAR CYNL 011200Z AUTO 10003KT 9SM CLR M29/M34 A2993 RMK AO1 PRESFR SLP234
METAR CYNL 011100Z AUTO 00000KT 9SM CLR M29/M34 A2997 RMK AO1 PRESFR SLP243
METAR CYNL 011000Z AUTO 00000KT 9SM CLR M31/M36 A2999 RMK AO1 PRESFR SLP253
METAR CYNL 010900Z AUTO 24005KT 9SM CLR M33/M38 A3002 RMK AO1 SLP265
METAR CYNL 010800Z AUTO 24003KT 9SM CLR M34/M39 A3004 RMK AO1 PRESFR SLP272
METAR CYNL 010700Z AUTO 24003KT 9SM CLR M34/M39 A3007 RMK AO1 PRESFR SLP283
METAR CYNL 010600Z AUTO 25007KT 9SM CLR M34/M39 A3011 RMK AO1 SLP298
METAR CYNL 010500Z AUTO 26003KT 9SM CLR M32/M38 A3009 RMK AO1 SLP294
METAR CYNL 010400Z AUTO 00000KT 9SM CLR M33/M38 A3010 RMK AO1 SLP301
METAR CYNL 010300Z AUTO 28005KT 9SM CLR M30/M37 A3012 RMK AO1 SLP306
METAR CYNL 010200Z AUTO 27002KT 9SM CLR M30/M36 A3013 RMK AO1 SLP312
METAR CYNL 010100Z AUTO 26004KT 9SM CLR M28/M35 A3014 RMK AO1 SLP316
METAR CYNL 010000Z AUTO 28005KT 9SM CLR M24/M34 A3014 RMK AO1 SLP312
METAR CYNL 282300Z AUTO 32005KT 9SM CLR M23/M33 A3014 RMK AO1 SLP309
METAR CYNL 282200Z AUTO 32008KT 9SM CLR M23/M33 A3013 RMK AO1 SLP307
METAR CYNL 282100Z AUTO 30006KT 9SM CLR M23/M33 A3012 RMK AO1 SLP302
METAR CYNL 282000Z AUTO 32009KT 9SM CLR M24/M33 A3012 RMK AO1 SLP304
METAR CYNL 281900Z AUTO 30006KT 9SM CLR M25/M34 A3012 RMK AO1 PRESRR SLP302
METAR CYNL 281800Z AUTO 30006KT 9SM CLR M27/M34 A3010 RMK AO1 SLP295
METAR CYNL 281700Z AUTO 29007KT 9SM CLR M29/M36 A3010 RMK AO1 SLP296
METAR CYNL 281600Z AUTO 29011G16KT 9SM CLR M31/M37 A3009 RMK AO1 PRESRR SLP293
METAR CYNL 281500Z AUTO ///// 9SM CLR M33/M38 A3007 RMK AO1 SLP286
METAR CYNL 281400Z AUTO ///// 9SM CLR M34/M39 A3006 RMK AO1 SLP284
METAR CYNL 281300Z AUTO ///// 9SM CLR M35/M40 A3005 RMK AO1 SLP280
METAR CYNL 281200Z AUTO 31006KT 9SM CLR M36/M40 A3003 RMK AO1 SLP273
METAR CYNL 281100Z AUTO 31004KT 9SM CLR M36/M41 A3002 RMK AO1 SLP268
METAR CYNL 281000Z AUTO ///// 9SM CLR M35/M40 A3000 RMK AO1 SLP258
METAR CYNL 280900Z AUTO 32005KT 9SM CLR M35/M40 A2999 RMK AO1 PRESRR SLP254
METAR CYNL 280800Z AUTO ///// 9SM CLR M33/M38 A2996 RMK AO1 SLP242
METAR CYNL 280700Z AUTO ///// 9SM CLR M32/M37 A2995 RMK AO1 PRESRR SLP235
METAR CYNL 280600Z AUTO ///// 9SM CLR M30/M35 A2992 RMK AO1 PRESRR SLP223
SPECI CYNL 280509Z AUTO ///// 6SM SCT005 M29/M33 A2989 RMK AO1 SLP215
METAR CYNL 280500Z AUTO ///// 5SM VV006 M28/M33 A2988 RMK AO1 SLP212
SPECI CYNL 280435Z AUTO ///// 4SM SCT006 M27/M32 A2987 RMK AO1 SLP209
SPECI CYNL 280432Z AUTO ///// 4SM VV008 M27/M32 A2988 RMK AO1 SLP210
METAR CYNL 280400Z AUTO ///// 8SM SCT007 M27/M31 A2986 RMK AO1 SLP205
SPECI CYNL 280359Z AUTO ///// 8SM SCT007 M27/M31 A2986 RMK AO1 SLP207
SPECI CYNL 280358Z AUTO 31007KT 6SM SCT007 BKN017 M27/M31 A2986 RMK AO1 SLP208
SPECI CYNL 280349Z AUTO 31008KT 5SM VV009 M26/M31 A2986 RMK AO1 SLP207
SPECI CYNL 280347Z AUTO 31008KT 7SM VV011 M26/M31 A2986 RMK AO1 SLP207
SPECI CYNL 280345Z AUTO 30008KT 5SM FEW009 M26/M31 A2986 RMK AO1 SLP208
METAR CYNL 280300Z AUTO 31006KT 9SM FEW010 M25/M30 A2985 RMK AO1 SLP201
SPECI CYNL 280217Z AUTO 30007KT 5SM FEW006 SCT010 M24/M29 A2983 RMK AO1 SLP200
SPECI CYNL 280215Z AUTO 30008KT 4SM VV007 M24/M29 A2983 RMK AO1 SLP199
SPECI CYNL 280207Z AUTO 30007KT 7SM FEW006 SCT012 M24/M29 A2983 RMK AO1 SLP198
SPECI CYNL 280204Z AUTO 29007KT 3SM VV012 M24/M29 A2983 RMK AO1 SLP198
METAR CYNL 280200Z AUTO 29006KT 9SM FEW006 M24/M29 A2983 RMK AO1 SLP198
METAR CYNL 280100Z AUTO 29005KT 9SM FEW007 M23/M27 A2983 RMK AO1 SLP200
SPECI CYNL 280043Z AUTO ///// 8SM SCT007 M23/M27 A2983 RMK AO1 SLP198
SPECI CYNL 280042Z AUTO ///// 7SM SCT007 BKN015 M23/M27 A2982 RMK AO1 SLP198
SPECI CYNL 280041Z AUTO ///// 7SM SCT007 BKN010 M23/M27 A2982 RMK AO1 SLP198
SPECI CYNL 280039Z AUTO ///// 5SM VV007 M22/M27 A2982 RMK AO1 SLP197
SPECI CYNL 280038Z AUTO ///// 3SM SCT007 BKN010 M22/M27 A2982 RMK AO1 SLP197
SPECI CYNL 280027Z AUTO ///// 5SM FEW006 SCT009 M22/M27 A2982 RMK AO1 SLP197
SPECI CYNL 280022Z AUTO ///// 5SM VV009 M22/M27 A2982 RMK AO1 SLP197
SPECI CYNL 280010Z AUTO ///// 5SM FEW007 M22/M27 A2982 RMK AO1 SLP195
METAR CYNL 280000Z AUTO ///// 9SM CLR M22/M27 A2982 RMK AO1 SLP195
SPECI CYNL 272322Z AUTO ///// 9SM FEW006 SCT009 M21/M26 A2981 RMK AO1 SLP191
SPECI CYNL 272317Z AUTO ///// 8SM FEW005 SCT009 BKN012 M21/M26 A2981 RMK AO1 SLP190
SPECI CYNL 272315Z AUTO 29006KT 5SM VV009 M21/M26 A2981 RMK AO1 SLP190
SPECI CYNL 272306Z AUTO ///// 6SM FEW006 SCT009 BKN013 M21/M26 A2981 RMK AO1 SLP189
SPECI CYNL 272301Z AUTO 28005KT 4SM VV009 M21/M26 A2981 RMK AO1 SLP189
METAR CYNL 272300Z AUTO 28006KT 4SM VV010 M21/M26 A2981 RMK AO1 SLP189
SPECI CYNL 272257Z AUTO 27006KT 3SM VV011 M21/M26 A2980 RMK AO1 SLP188
SPECI CYNL 272252Z AUTO 28006KT 2SM VV014 M20/M26 A2980 RMK AO1 SLP187
SPECI CYNL 272250Z AUTO 27008KT 2 1/2SM VV016 M20/M26 A2980 RMK AO1 SLP187
SPECI CYNL 272249Z AUTO 27007KT 3SM VV017 M20/M26 A2980 RMK AO1 SLP187
METAR CYNL 272200Z AUTO ///// 9SM FEW007 M20/M27 A2981 RMK AO1 SLP187
SPECI CYNL 272105Z AUTO 26007KT 7SM FEW009 M20/M27 A2981 RMK AO1 SLP189
METAR CYNL 272100Z AUTO 28007KT 9SM FEW011 M20/M27 A2981 RMK AO1 SLP188
SPECI CYNL 272044Z AUTO 28007KT 7SM FEW008 SCT011 M20/M27 A2981 RMK AO1 SLP188
SPECI CYNL 272043Z AUTO 28006KT 5SM VV009 M20/M27 A2981 RMK AO1 SLP188
SPECI CYNL 272041Z AUTO 27007KT 4SM VV010 M20/M27 A2981 RMK AO1 SLP188
METAR CYNL 272000Z AUTO 28009KT 7SM SCT008 M21/M28 A2982 RMK AO1 SLP193
SPECI CYNL 271954Z AUTO 27009KT 6SM FEW006 SCT009 M21/M28 A2983 RMK AO1 SLP192
SPECI CYNL 271949Z AUTO 28008KT 4SM VV009 M21/M28 A2982 RMK AO1 SLP192
SPECI CYNL 271927Z AUTO 27008KT 6SM FEW006 SCT008 M22/M28 A2983 RMK AO1 SLP195
SPECI CYNL 271924Z AUTO 25008KT 4SM VV009 M22/M28 A2983 RMK AO1 SLP195
SPECI CYNL 271921Z AUTO 25008KT 3SM VV012 M22/M28 A2983 RMK AO1 SLP196
SPECI CYNL 271906Z AUTO 26009KT 5SM FEW006 M22/M29 A2984 RMK AO1 SLP197
METAR CYNL 271900Z AUTO 25007KT 9SM CLR M22/M29 A2984 RMK AO1 SLP197
SPECI CYNL 271833Z AUTO 29008KT 9SM FEW009 M22/M30 A2984 RMK AO1 SLP198
METAR CYNL 271800Z AUTO 24004KT 9SM CLR M24/M33 A2985 RMK AO1 SLP203
METAR CYNL 271700Z AUTO 23006KT 9SM FEW180 M25/M34 A2985 RMK AO1 SLP206
METAR CYNL 271600Z AUTO 24006KT 9SM CLR M28/M35 A2986 RMK AO1 SLP215
METAR CYNL 271500Z AUTO 23005KT 9SM CLR M31/M37 A2987 RMK AO1 SLP222
METAR CYNL 271400Z AUTO ///// 9SM CLR M34/M39 A2988 RMK AO1 SLP228
METAR CYNL 271300Z AUTO 24005KT 9SM CLR M34/M40 A2990 RMK AO1 SLP235
METAR CYNL 271200Z AUTO 25004KT 9SM CLR M34/M40 A2990 RMK AO1 SLP235
METAR CYNL 271100Z AUTO ///// 9SM CLR M34/M40 A2991 RMK AO1 SLP234
METAR CYNL 271000Z AUTO ///// 9SM CLR M33/M40 A2991 RMK AO1 SLP232
METAR CYNL 270900Z AUTO ///// 9SM CLR M32/M39 A2992 RMK AO1 SLP233
METAR CYNL 270800Z AUTO ///// 9SM CLR M31/M39 A2993 RMK AO1 SLP234
METAR CYNL 270700Z AUTO 28007KT 9SM CLR M31/M39 A2992 RMK AO1 SLP233
METAR CYNL 270600Z AUTO ///// 9SM CLR M30/M38 A2993 RMK AO1 SLP233
METAR CYNL 270500Z AUTO ///// 9SM CLR M31/M38 A2992 RMK AO1 SLP234
METAR CYNL 270400Z AUTO 27006KT 9SM CLR M31/M38 A2992 RMK AO1 SLP237
METAR CYNL 270300Z AUTO 27007KT 9SM CLR M30/M37 A2992 RMK AO1 SLP237
METAR CYNL 270200Z AUTO 28007KT 9SM CLR M30/M37 A2992 RMK AO1 SLP244
METAR CYNL 270100Z AUTO 27005KT 9SM CLR M30/M37 A2992 RMK AO1 SLP247
METAR CYNL 270000Z AUTO 29007KT 9SM CLR M28/M36 A2992 RMK AO1 SLP248
METAR CYNL 262300Z AUTO 30007KT 9SM CLR M26/M36 A2990 RMK AO1 SLP238
METAR CYNL 262200Z AUTO 30007KT 9SM CLR M25/M35 A2989 RMK AO1 SLP229
METAR CYNL 262100Z AUTO 29007KT 9SM CLR M25/M35 A2988 RMK AO1 SLP225
METAR CYNL 262000Z AUTO 30009KT 9SM CLR M26/M36 A2989 RMK AO1 SLP226
METAR CYNL 261900Z AUTO 28006KT 9SM CLR M27/M36 A2989 RMK AO1 SLP227
METAR CYNL 261800Z AUTO 31008KT 9SM CLR M28/M37 A2988 RMK AO1 SLP225
METAR CYNL 261700Z AUTO 32005KT 9SM CLR M29/M38 A2987 RMK AO1 SLP221
METAR CYNL 261600Z AUTO 30004KT 9SM CLR M31/M39 A2985 RMK AO1 SLP215
METAR CYNL 261500Z AUTO ///// 9SM CLR M35/M41 A2984 RMK AO1 SLP213
METAR CYNL 261400Z AUTO ///// 9SM CLR M38/M43 A2982 RMK AO1 PRESRR SLP209
METAR CYNL 261300Z AUTO 33002KT 9SM CLR M41/M46 A2979 RMK AO1 PRESRR SLP202
SPECI CYNL 261256Z AUTO 33003KT 6SM CLR M41/M46 A2979 RMK AO1 SLP199
SPECI CYNL 261255Z AUTO 33003KT 2SM CLR M41/M46 A2979 RMK AO1 SLP199
SPECI CYNL 261254Z AUTO 33003KT 1SM CLR M41/M46 A2979 RMK AO1 SLP199
SPECI CYNL 261251Z AUTO 00000KT 3/8SM CLR M41/M46 A2979 RMK AO1 SLP198
SPECI CYNL 261250Z AUTO 00000KT 3/4SM CLR M41/M46 A2979 RMK AO1 SLP198
SPECI CYNL 261249Z AUTO 00000KT 1 1/2SM CLR M41/M46 A2979 RMK AO1 SLP198
SPECI CYNL 261247Z AUTO 00000KT 2SM CLR M40/M46 A2979 RMK AO1 SLP197
SPECI CYNL 261246Z AUTO ///// 1 1/2SM CLR M40/M46 A2978 RMK AO1 SLP197
SPECI CYNL 261245Z AUTO ///// 1SM CLR M40/M46 A2978 RMK AO1 SLP196
SPECI CYNL 261238Z AUTO ///// 5/8SM CLR M40/M45 A2978 RMK AO1 SLP195
SPECI CYNL 261237Z AUTO ///// 1 1/4SM CLR M40/M45 A2978 RMK AO1 SLP195
SPECI CYNL 261236Z AUTO ///// 1 1/2SM CLR M40/M45 A2978 RMK AO1 SLP195
SPECI CYNL 261235Z AUTO ///// 2SM CLR M40/M45 A2978 RMK AO1 SLP195
SPECI CYNL 261234Z AUTO 00000KT 1 3/4SM CLR M40/M45 A2978 RMK AO1 SLP195
SPECI CYNL 261232Z AUTO 34002KT 1 1/4SM CLR M40/M46 A2978 RMK AO1 SLP195
SPECI CYNL 261231Z AUTO 34002KT 2 1/2SM CLR M40/M46 A2978 RMK AO1 SLP195
METAR CYNL 261200Z AUTO ///// 9SM CLR M39/M45 A2977 RMK AO1 SLP189
METAR CYNL 261100Z AUTO 01002KT 9SM CLR M38/M43 A2975 RMK AO1 SLP178
METAR CYNL 261000Z AUTO 02003KT 9SM CLR M36/M42 A2974 RMK AO1 SLP173
METAR CYNL 260900Z AUTO 02004KT 9SM CLR M36/M41 A2973 RMK AO1 PRESRR SLP166
METAR CYNL 260800Z AUTO 03005KT 9SM CLR M35/M40 A2971 RMK AO1 SLP156
METAR CYNL 260700Z AUTO 04006KT 9SM CLR M33/M40 A2969 RMK AO1 SLP146
METAR CYNL 260600Z AUTO 04006KT 9SM CLR M32/M38 A2968 RMK AO1 SLP136
METAR CYNL 260500Z AUTO 05007KT 9SM CLR M31/M38 A2966 RMK AO1 PRESRR SLP131
METAR CYNL 260400Z AUTO 04006KT 9SM CLR M30/M37 A2964 RMK AO1 SLP120
METAR CYNL 260300Z AUTO 04010KT 9SM CLR M28/M35 A2963 RMK AO1 PRESRR SLP116
METAR CYNL 260200Z AUTO 05008KT 9SM CLR M27/M33 A2961 RMK AO1 SLP104
METAR CYNL 260100Z AUTO 05009KT 9SM CLR M25/M32 A2960 RMK AO1 PRESRR SLP102
METAR CYNL 260000Z AUTO 07010KT 9SM CLR M24/M29 A2958 RMK AO1 SLP096
METAR CYNL 252300Z AUTO 04011KT 9SM CLR M23/M28 A2956 RMK AO1 SLP088
METAR CYNL 252200Z AUTO ///// 5SM FEW008 SCT200 M21/M26 A2954 RMK AO1 SLP080
SPECI CYNL 252130Z AUTO ///// 7SM SCT006 BKN110 M21/M26 A2954 RMK AO1 SLP078
SPECI CYNL 252114Z AUTO 04011KT 3SM VV006 M21/M25 A2954 RMK AO1 SLP078
SPECI CYNL 252110Z AUTO 03012KT 2SM VV005 M21/M25 A2954 RMK AO1 SLP078
SPECI CYNL 252109Z AUTO ///// 2 1/2SM VV004 M21/M25 A2954 RMK AO1 SLP078
SPECI CYNL 252108Z AUTO ///// 2 1/2SM VV005 M21/M25 A2954 RMK AO1 SLP078
SPECI CYNL 252106Z AUTO ///// 3SM VV005 M21/M25 A2954 RMK AO1 SLP078
SPECI CYNL 252103Z AUTO ///// 2 1/2SM VV005 M21/M25 A2954 RMK AO1 SLP077
METAR CYNL 252100Z AUTO ///// 3SM VV006 M21/M25 A2954 RMK AO1 SLP076
SPECI CYNL 252046Z AUTO ///// 3SM VV008 M20/M25 A2953 RMK AO1 SLP073
SPECI CYNL 252034Z AUTO 02011KT 2 1/2SM VV009 M20/M24 A2953 RMK AO1 SLP073
SPECI CYNL 252033Z AUTO 02011G16KT 3SM VV010 M20/M24 A2953 RMK AO1 SLP073
SPECI CYNL 252029Z AUTO 03011G17KT 4SM VV009 M20/M24 A2953 RMK AO1 SLP073
SPECI CYNL 252027Z AUTO 03011G17KT 5SM VV010 M20/M24 A2954 RMK AO1 SLP073
SPECI CYNL 252026Z AUTO ///// 5SM VV009 M20/M24 A2954 RMK AO1 SLP073
SPECI CYNL 252005Z AUTO 04009KT 5SM VV013 M19/M23 A2953 RMK AO1 SLP070
SPECI CYNL 252004Z AUTO 03009G16KT 5SM FEW006 SCT007 BKN020 M19/M23 A2953 RMK AO1 SLP070
METAR CYNL 252000Z AUTO 03010G16KT 5SM FEW006 SCT008 M19/M23 A2953 RMK AO1 SLP070
SPECI CYNL 251957Z AUTO 03009G16KT 5SM FEW006 SCT008 M19/M23 A2953 RMK AO1 SLP070
SPECI CYNL 251952Z AUTO 03012KT 5SM FEW006 SCT008 BKN012 M19/M23 A2953 RMK AO1 SLP069
SPECI CYNL 251933Z AUTO 03012KT 3SM VV009 M18/M23 A2953 RMK AO1 SLP068
SPECI CYNL 251931Z AUTO 02011KT 3SM VV010 M18/M22 A2953 RMK AO1 SLP068
SPECI CYNL 251922Z AUTO 05012KT 3SM VV008 M18/M22 A2952 RMK AO1 SLP067
SPECI CYNL 251920Z AUTO 05013KT 2 1/2SM VV009 M18/M23 A2952 RMK AO1 SLP067
SPECI CYNL 251905Z AUTO 02011KT 4SM VV008 M18/M22 A2953 RMK AO1 SLP069
METAR CYNL 251900Z AUTO 04013KT 4SM FEW007 SCT016 M18/M22 A2953 RMK AO1 SLP068
METAR CYNL 251800Z AUTO 01010G15KT 9SM FEW007 SCT012 M18/M21 A2951 RMK AO1 SLP067
SPECI CYNL 251755Z AUTO 02012G18KT 9SM SCT007 M17/M21 A2951 RMK AO1 SLP070
SPECI CYNL 251754Z AUTO 02012G18KT 8SM SCT007 BKN012 M18/M21 A2951 RMK AO1 SLP070
SPECI CYNL 251751Z AUTO 01012G18KT 9SM SCT008 M18/M21 A2951 RMK AO1 SLP069
SPECI CYNL 251739Z AUTO 02009G15KT 9SM FEW004 SCT007 BKN012 M17/M21 A2952 RMK AO1 SLP072
SPECI CYNL 251729Z AUTO 03013KT 6SM VV009 M17/M20 A2952 RMK AO1 SLP071
SPECI CYNL 251727Z AUTO 02011KT 4SM VV010 M17/M20 A2952 RMK AO1 SLP071
SPECI CYNL 251724Z AUTO 02012KT 3SM FEW003 BKN007 BKN012 M17/M20 A2952 RMK AO1 SLP070
SPECI CYNL 251723Z AUTO 02012KT 2 1/2SM FEW003 BKN007 BKN012 M17/M20 A2952 RMK AO1 SLP070
SPECI CYNL 251711Z AUTO 03009KT 3SM SCT003 BKN006 BKN008 M17/M20 A2951 RMK AO1 SLP067
SPECI CYNL 251710Z AUTO 02007KT 2 1/2SM SCT003 BKN006 BKN008 M17/M19 A2951 RMK AO1 SLP066
SPECI CYNL 251703Z AUTO 02011KT 4SM FEW003 SCT006 BKN008 M16/M19 A2950 RMK AO1 SLP066
SPECI CYNL 251701Z AUTO 02006KT 2SM FEW002 SCT006 BKN008 M16/M19 A2950 RMK AO1 SLP066
METAR CYNL 251700Z AUTO 01006KT 1 3/4SM FEW002 BKN008 OVC024 M16/M19 A2950 RMK AO1 SLP065
SPECI CYNL 251658Z AUTO 01007KT 2 1/2SM FEW003 BKN008 OVC024 M16/M19 A2950 RMK AO1 SLP071
SPECI CYNL 251653Z AUTO 03009KT 3SM FEW003 BKN008 BKN012 M16/M19 A2950 RMK AO1 SLP071
SPECI CYNL 251650Z AUTO 02010KT 2SM FEW002 BKN008 OVC016 M16/M19 A2950 RMK AO1 SLP071
SPECI CYNL 251649Z AUTO 02009KT 1 3/4SM FEW002 BKN008 OVC016 M16/M19 A2951 RMK AO1 SLP071
SPECI CYNL 251645Z AUTO 01010KT 2SM VV008 M16/M19 A2951 RMK AO1 SLP072
SPECI CYNL 251640Z AUTO 01006KT 1 1/2SM VV008 M16/M19 A2951 RMK AO1 SLP071
SPECI CYNL 251639Z AUTO 01007KT 1 1/4SM VV009 M16/M19 A2950 RMK AO1 SLP071
SPECI CYNL 251635Z AUTO 02008KT 1 3/4SM VV012 M16/M19 A2950 RMK AO1 SLP070
SPECI CYNL 251634Z AUTO 02008KT 2SM VV013 M16/M19 A2950 RMK AO1 SLP069
SPECI CYNL 251613Z AUTO 01007KT 7SM FEW002 SCT005 OVC015 M16/M19 A2950 RMK AO1 SLP071
SPECI CYNL 251608Z AUTO 01007KT 7SM SCT002 BKN012 OVC014 M16/M19 A2950 RMK AO1 SLP071
SPECI CYNL 251604Z AUTO 00006KT 5SM SCT002 BKN005 BKN012 M16/M19 A2950 RMK AO1 SLP072
METAR CYNL 251600Z AUTO 01007KT 4SM BKN002 BKN005 OVC009 M17/M19 A2951 RMK AO1 SLP073
SPECI CYNL 251558Z AUTO 00005KT 3SM BKN002 OVC009 M17/M19 A2951 RMK AO1 SLP074
SPECI CYNL 251550Z AUTO ///// 2SM BKN002 BKN005 OVC006 M17/M19 A2952 RMK AO1 SLP076
SPECI CYNL 251545Z AUTO ///// 1 1/2SM BKN002 OVC006 M17/M19 A2952 RMK AO1 SLP076
SPECI CYNL 251544Z AUTO ///// 1 1/4SM BKN002 OVC006 M17/M19 A2952 RMK AO1 SLP076
SPECI CYNL 251541Z AUTO 00010G17KT 1 1/2SM BKN002 OVC006 M16/M19 A2952 RMK AO1 SLP076
SPECI CYNL 251540Z AUTO 00011G17KT 1 1/4SM BKN002 OVC006 M16/M19 A2952 RMK AO1 SLP076
SPECI CYNL 251539Z AUTO 00011G17KT 1 1/4SM SCT003 BKN004 OVC006 M16/M19 A2952 RMK AO1 SLP076
SPECI CYNL 251538Z AUTO 35011G17KT 1 1/2SM SCT003 OVC006 M16/M19 A2952 RMK AO1 SLP075
SPECI CYNL 251537Z AUTO 35011KT 1 3/4SM SCT003 BKN004 OVC006 M16/M19 A2952 RMK AO1 SLP075
SPECI CYNL 251535Z AUTO 35007G15KT 2 1/2SM SCT003 OVC006 M16/M19 A2952 RMK AO1 SLP075
SPECI CYNL 251521Z AUTO 34007KT 5SM SCT004 OVC006 M16/M18 A2951 RMK AO1 SLP073
METAR CYNL 251500Z AUTO 34006KT 9SM OVC003 M15/M17 A2950 RMK AO1 SLP069
METAR CYNL 251400Z AUTO 26003KT 9SM OVC003 M18/M21 A2950 RMK AO1 SLP070
SPECI CYNL 251330Z AUTO 26004KT 9SM BKN004 OVC007 M18/M21 A2951 RMK AO1 PRESFR SLP070
SPECI CYNL 251313Z AUTO 30004KT 9SM BKN007 M19/M22 A2951 RMK AO1 PRESFR SLP073
SPECI CYNL 251301Z AUTO ///// 9SM FEW007 M20/M23 A2952 RMK AO1 PRESFR SLP075
METAR CYNL 251300Z AUTO 27004KT 9SM CLR M20/M23 A2952 RMK AO1 PRESFR SLP075
METAR CYNL 251200Z AUTO 23006KT 9SM CLR M20/M23 A2955 RMK AO1 PRESFR SLP081
METAR CYNL 251100Z AUTO 23004KT 9SM CLR M20/M23 A2958 RMK AO1 PRESFR SLP088
METAR CYNL 251000Z AUTO 21005KT 9SM CLR M19/M22 A2964 RMK AO1 PRESFR SLP104
METAR CYNL 250900Z AUTO 21005KT 9SM CLR M18/M21 A2967 RMK AO1 PRESFR SLP115
SPECI CYNL 250819Z AUTO 21006KT 9SM SCT017 M18/M21 A2970 RMK AO1 PRESFR SLP123
METAR CYNL 250800Z AUTO 21006KT 9SM OVC016 M18/M21 A2971 RMK AO1 PRESFR SLP129
SPECI CYNL 250729Z AUTO 23003KT 9SM OVC015 M20/M24 A2974 RMK AO1 PRESFR SLP141
METAR CYNL 250700Z AUTO 22002KT 9SM OVC013 M21/M24 A2976 RMK AO1 PRESFR SLP150
SPECI CYNL 250648Z AUTO 22005KT 9SM OVC014 M21/M25 A2977 RMK AO1 PRESFR SLP155
METAR CYNL 250600Z AUTO 22003KT 9SM OVC016 M24/M27 A2981 RMK AO1 PRESFR SLP172
SPECI CYNL 250529Z AUTO 23003KT 9SM OVC024 M28/M31 A2984 RMK AO1 PRESFR SLP189
SPECI CYNL 250509Z AUTO 22003KT 9SM BKN027 M28/M32 A2985 RMK AO1 PRESFR SLP192
METAR CYNL 250500Z AUTO 22003KT 9SM FEW028 M29/M32 A2985 RMK AO1 PRESFR SLP194
METAR CYNL 250400Z AUTO 00000KT 9SM CLR M29/M33 A2989 RMK AO1 PRESFR SLP209
METAR CYNL 250300Z AUTO 00000KT 9SM CLR M27/M31 A2992 RMK AO1 PRESFR SLP223
METAR CYNL 250200Z AUTO 18003KT 9SM CLR M24/M28 A2995 RMK AO1 SLP233
METAR CYNL 250100Z AUTO 00000KT 9SM BKN038 M21/M23 A2996 RMK AO1 SLP232
METAR CYNL 250000Z AUTO 27003KT 9SM OVC041 M17/M21 A2997 RMK AO1 SLP233
METAR CYNL 242300Z AUTO 27006KT 9SM BKN042 M15/M21 A2999 RMK AO1 SLP239
METAR CYNL 242200Z AUTO 30003KT 9SM FEW020 OVC045 M15/M20 A2999 RMK AO1 SLP240
METAR CYNL 242100Z AUTO 27007KT 8SM FEW020 SCT052 M16/M21 A3000 RMK AO1 SLP241
SPECI CYNL 242044Z AUTO 30007KT 7SM FEW008 SCT012 BKN054 M15/M21 A3000 RMK AO1 SLP241
SPECI CYNL 242038Z AUTO 25007KT 210V290 6SM SCT008 BKN020 M15/M21 A3000 RMK AO1 SLP241
SPECI CYNL 242032Z AUTO 25006KT 210V280 4SM FEW007 SCT009 BKN013 M15/M21 A3000 RMK AO1 SLP242
SPECI CYNL 242024Z AUTO 23005KT 4SM VV009 M15/M21 A3001 RMK AO1 SLP243
SPECI CYNL 242019Z AUTO 19005KT 6SM VV012 M15/M21 A3001 RMK AO1 SLP242
SPECI CYNL 242017Z AUTO 21004KT 6SM FEW008 SCT020 M15/M21 A3001 RMK AO1 SLP242
METAR CYNL 242000Z AUTO 25005KT 9SM FEW019 M15/M21 A3001 RMK AO1 SLP243
METAR CYNL 241900Z AUTO 24004KT 9SM CLR M16/M21 A3001 RMK AO1 SLP246
METAR CYNL 241800Z AUTO 27002KT 9SM FEW060 M18/M22 A3001 RMK AO1 SLP243
SPECI CYNL 241709Z AUTO 23003KT 8SM SCT006 BKN072 M20/M24 A3001 RMK AO1 SLP248
SPECI CYNL 241707Z AUTO 23004KT 8SM SCT007 BKN018 M20/M24 A3002 RMK AO1 SLP248
METAR CYNL 241700Z AUTO 23004KT 9SM FEW008 BKN013 M20/M24 A3002 RMK AO1 SLP249
SPECI CYNL 241652Z AUTO 28003KT 6SM FEW008 BKN015 BKN021 M20/M24 A3002 RMK AO1 SLP252
SPECI CYNL 241649Z AUTO 27004KT 6SM VV014 M21/M24 A3002 RMK AO1 SLP252
SPECI CYNL 241648Z AUTO 27004KT 6SM VV015 M21/M24 A3002 RMK AO1 SLP252
SPECI CYNL 241638Z AUTO 28004KT 5SM VV014 M21/M25 A3002 RMK AO1 SLP253
SPECI CYNL 241624Z AUTO 23002KT 4SM VV015 M22/M26 A3003 RMK AO1 SLP257
SPECI CYNL 241618Z AUTO 23003KT 4SM VV014 M22/M26 A3003 RMK AO1 SLP257
SPECI CYNL 241613Z AUTO 24004KT 6SM VV015 M23/M26 A3003 RMK AO1 SLP257
SPECI CYNL 241609Z AUTO 26004KT 3SM VV014 M23/M27 A3003 RMK AO1 SLP258
SPECI CYNL 241606Z AUTO 26003KT 5SM VV016 M24/M27 A3003 RMK AO1 SLP258
METAR CYNL 241600Z AUTO 00000KT 9SM CLR M24/M28 A3002 RMK AO1 SLP258
METAR CYNL 241500Z AUTO 23005KT 9SM CLR M26/M30 A3002 RMK AO1 SLP256
METAR CYNL 241400Z AUTO 29005KT 9SM CLR M26/M30 A3001 RMK AO1 SLP251
METAR CYNL 241300Z AUTO 25002KT 9SM CLR M29/M33 A3001 RMK AO1 SLP251
METAR CYNL 241200Z AUTO 24005KT 9SM CLR M29/M32 A3000 RMK AO1 SLP244
METAR CYNL 241100Z AUTO 24003KT 9SM CLR M29/M33 A2999 RMK AO1 SLP240
METAR CYNL 241000Z AUTO 25004KT 9SM CLR M29/M32 A2999 RMK AO1 SLP238
METAR CYNL 240900Z AUTO 25004KT 9SM CLR M28/M32 A2999 RMK AO1 SLP235
METAR CYNL 240800Z AUTO 21004KT 9SM CLR M28/M32 A2997 RMK AO1 SLP228
METAR CYNL 240700Z AUTO 27002KT 9SM CLR M25/M28 A2997 RMK AO1 SLP225
METAR CYNL 240600Z AUTO 30005KT 9SM CLR M25/M28 A2996 RMK AO1 SLP224
METAR CYNL 240500Z AUTO 29003KT 9SM CLR M26/M30 A2995 RMK AO1 SLP224
METAR CYNL 240400Z AUTO 28003KT 9SM CLR M25/M29 A2995 RMK AO1 SLP224
METAR CYNL 240300Z AUTO 29003KT 9SM CLR M22/M25 A2994 RMK AO1 SLP217
METAR CYNL 240200Z AUTO 30004KT 9SM CLR M20/M23 A2992 RMK AO1 PRESRR SLP209
SPECI CYNL 240120Z AUTO ///// 9SM SCT010 M18/M21 A2991 RMK AO1 PRESRR SLP201
METAR CYNL 240100Z AUTO ///// 9SM BKN012 OVC016 M18/M21 A2990 RMK AO1 PRESRR SLP198
SPECI CYNL 240050Z AUTO 31004KT 9SM OVC014 M17/M21 A2990 RMK AO1 SLP198
METAR CYNL 240000Z AUTO 29005KT 9SM OVC016 M16/M19 A2987 RMK AO1 SLP187
SPECI CYNL 232326Z AUTO 31006KT 9SM OVC015 M16/M20 A2986 RMK AO1 PRESRR SLP185
SPECI CYNL 232317Z AUTO 30004KT 9SM BKN014 BKN021 OVC029 M16/M20 A2986 RMK AO1 PRESRR SLP185
METAR CYNL 232300Z AUTO 31004KT 9SM SCT016 BKN021 BKN029 M16/M20 A2986 RMK AO1 PRESRR SLP182
METAR CYNL 232200Z AUTO 32003KT 9SM OVC018 M15/M20 A2983 RMK AO1 SLP173
METAR CYNL 232100Z AUTO 30003KT 270V340 9SM OVC020 M14/M19 A2982 RMK AO1 SLP168
METAR CYNL 232000Z AUTO 30005KT 270V330 9SM FEW017 OVC022 M15/M20 A2981 RMK AO1 SLP165
METAR CYNL 231900Z AUTO 35004KT 320V020 9SM OVC016 M16/M21 A2979 RMK AO1 SLP165
METAR CYNL 231800Z AUTO VRB03KT 9SM BKN015 OVC022 M17/M22 A2978 RMK AO1 SLP165
SPECI CYNL 231716Z AUTO 00000KT 9SM FEW015 OVC024 M18/M22 A2977 RMK AO1 SLP160
METAR CYNL 231700Z AUTO 00000KT 9SM OVC025 M18/M23 A2977 RMK AO1 SLP158
METAR CYNL 231600Z AUTO 00000KT 9SM OVC027 M19/M23 A2975 RMK AO1 SLP149
METAR CYNL 231500Z AUTO ///// 9SM OVC028 M20/M24 A2974 RMK AO1 PRESRR SLP142
METAR CYNL 231400Z AUTO 00000KT 9SM OVC026 M20/M24 A2970 RMK AO1 SLP131
METAR CYNL 231300Z AUTO 00000KT 9SM OVC028 M21/M24 A2968 RMK AO1 PRESRR SLP125
SPECI CYNL 231215Z AUTO 00000KT 9SM OVC029 M21/M25 A2967 RMK AO1 SLP120
METAR CYNL 231200Z AUTO 00000KT 9SM OVC030 M21/M25 A2967 RMK AO1 SLP118
METAR CYNL 231100Z AUTO 00000KT 9SM OVC032 M22/M25 A2966 RMK AO1 SLP115
METAR CYNL 231000Z AUTO 00000KT 9SM OVC035 M22/M26 A2964 RMK AO1 SLP110
METAR CYNL 230900Z AUTO 06002KT 9SM OVC038 M22/M26 A2963 RMK AO1 PRESRR SLP104
METAR CYNL 230800Z AUTO 00000KT 9SM OVC043 M24/M28 A2960 RMK AO1 SLP099
METAR CYNL 230700Z AUTO ///// 9SM CLR M27/M31 A2959 RMK AO1 PRESRR SLP098
METAR CYNL 230600Z AUTO 00000KT 9SM CLR M24/M27 A2957 RMK AO1 SLP086
METAR CYNL 230500Z AUTO 00000KT 9SM FEW080 M19/M22 A2955 RMK AO1 SLP073
METAR CYNL 230400Z AUTO 00000KT 9SM BKN076 M18/M21 A2955 RMK AO1 SLP070
SPECI CYNL 230336Z AUTO 00000KT 7SM FEW006 SCT010 BKN080 M18/M21 A2955 RMK AO1 SLP071
SPECI CYNL 230332Z AUTO 00000KT 7SM FEW007 SCT009 BKN015 M18/M21 A2955 RMK AO1 SLP071
SPECI CYNL 230329Z AUTO 00000KT 5SM FEW006 SCT009 BKN014 M18/M21 A2955 RMK AO1 SLP071
SPECI CYNL 230323Z AUTO 00000KT 4SM VV009 M18/M21 A2955 RMK AO1 SLP070
SPECI CYNL 230309Z AUTO 00000KT 4SM VV014 M18/M21 A2955 RMK AO1 SLP071
METAR CYNL 230300Z AUTO 00000KT 5SM VV016 M18/M21 A2955 RMK AO1 SLP070
SPECI CYNL 230254Z AUTO 00000KT 5SM VV015 M18/M21 A2955 RMK AO1 SLP068
SPECI CYNL 230253Z AUTO 00000KT 6SM VV014 M18/M21 A2955 RMK AO1 SLP068
SPECI CYNL 230248Z AUTO 00000KT 7SM FEW008 M18/M21 A2954 RMK AO1 SLP067
METAR CYNL 230200Z AUTO 32003KT 9SM BKN084 M18/M21 A2954 RMK AO1 SLP065
METAR CYNL 230100Z AUTO 32004KT 9SM OVC080 M17/M21 A2952 RMK AO1 PRESRR SLP056
METAR CYNL 230000Z AUTO ///// 9SM OVC076 M17/M21 A2949 RMK AO1 PRESRR SLP043
METAR CYNL 222300Z AUTO 33006KT 9SM FEW088 M16/M20 A2947 RMK AO1 SLP033
METAR CYNL 222200Z AUTO 33007KT 9SM FEW090 M16/M20 A2945 RMK AO1 PRESRR SLP024
METAR CYNL 222100Z AUTO 31009KT 9SM BKN084 M16/M19 A2942 RMK AO1 PRESRR SLP010
METAR CYNL 222000Z AUTO 33007KT 9SM BKN088 M15/M19 A2938 RMK AO1 PRESRR SLP999
METAR CYNL 221900Z AUTO ///// 9SM BKN090 M15/M19 A2935 RMK AO1 PRESRR SLP990
METAR CYNL 221800Z AUTO 33008KT 9SM FEW066 SCT094 M15/M18 A2931 RMK AO1 PRESRR SLP978
SPECI CYNL 221711Z AUTO 34009G15KT 9SM FEW006 SCT008 BKN070 M15/M18 A2928 RMK AO1 PRESRR SLP966
METAR CYNL 221700Z AUTO 34007KT 9SM FEW006 SCT009 BKN011 M14/M17 A2927 RMK AO1 PRESRR SLP962
SPECI CYNL 221657Z AUTO 33007KT 9SM FEW006 SCT009 BKN011 M14/M17 A2927 RMK AO1 PRESRR SLP958
SPECI CYNL 221654Z AUTO 33007KT 9SM VV008 M14/M17 A2927 RMK AO1 PRESRR SLP957
SPECI CYNL 221653Z AUTO 33006KT 9SM SCT006 BKN011 BKN070 M14/M17 A2927 RMK AO1 PRESRR SLP957
SPECI CYNL 221651Z AUTO 34007KT 9SM VV008 M14/M17 A2926 RMK AO1 PRESRR SLP957
SPECI CYNL 221650Z AUTO 35009KT 9SM SCT006 BKN010 BKN070 M14/M17 A2926 RMK AO1 PRESRR SLP956
SPECI CYNL 221649Z AUTO 35009KT 9SM SCT006 BKN009 M14/M17 A2926 RMK AO1 PRESRR SLP956
SPECI CYNL 221641Z AUTO 00008KT 9SM FEW006 BKN010 BKN070 M14/M17 A2926 RMK AO1 PRESRR SLP954
SPECI CYNL 221640Z AUTO 35009KT 9SM VV009 M14/M17 A2926 RMK AO1 PRESRR SLP954
SPECI CYNL 221635Z AUTO 00006KT 9SM FEW007 SCT011 BKN028 M14/M17 A2926 RMK AO1 PRESRR SLP953
SPECI CYNL 221633Z AUTO 00009KT 9SM SCT007 BKN030 BKN072 M14/M17 A2926 RMK AO1 PRESRR SLP953
SPECI CYNL 221631Z AUTO 35010KT 9SM SCT007 BKN029 BKN072 M14/M17 A2926 RMK AO1 PRESRR SLP953
SPECI CYNL 221629Z AUTO 00009KT 9SM VV007 M14/M17 A2925 RMK AO1 PRESRR SLP953
SPECI CYNL 221626Z AUTO 00008KT 9SM SCT007 BKN030 M14/M17 A2925 RMK AO1 PRESRR SLP952
SPECI CYNL 221620Z AUTO 35007KT 9SM SCT007 BKN027 BKN033 M14/M17 A2925 RMK AO1 PRESRR SLP950
SPECI CYNL 221619Z AUTO 34006KT 9SM VV014 M14/M17 A2924 RMK AO1 PRESRR SLP949
SPECI CYNL 221616Z AUTO 35007KT 9SM VV022 M14/M17 A2924 RMK AO1 PRESRR SLP948
SPECI CYNL 221614Z AUTO 00008KT 9SM VV028 M14/M17 A2924 RMK AO1 PRESRR SLP947
SPECI CYNL 221610Z AUTO 00010KT 9SM VV030 M14/M17 A2923 RMK AO1 PRESRR SLP946
SPECI CYNL 221608Z AUTO 00007KT 8SM VV026 M14/M17 A2923 RMK AO1 PRESRR SLP945
SPECI CYNL 221604Z AUTO 35009KT 5SM VV015 M14/M17 A2923 RMK AO1 PRESRR SLP945
METAR CYNL 221600Z AUTO 00005KT 4SM VV011 M14/M17 A2923 RMK AO1 PRESRR SLP944
SPECI CYNL 221558Z AUTO 00006KT 3SM VV011 M14/M17 A2923 RMK AO1 PRESRR SLP943
SPECI CYNL 221557Z AUTO 00006KT 2 1/2SM VV012 M14/M17 A2923 RMK AO1 PRESRR SLP942
SPECI CYNL 221547Z AUTO ///// 8SM SCT007 BKN016 BKN027 M14/M17 A2922 RMK AO1 PRESRR SLP940
SPECI CYNL 221543Z AUTO 35011KT 8SM VV014 M14/M17 A2922 RMK AO1 PRESRR SLP938
SPECI CYNL 221542Z AUTO 35012KT 8SM VV016 M14/M17 A2922 RMK AO1 PRESRR SLP938
SPECI CYNL 221530Z AUTO 01007KT 5SM VV014 M14/M17 A2921 RMK AO1 PRESRR SLP934
SPECI CYNL 221519Z AUTO ///// 3SM VV015 M14/M17 A2919 RMK AO1 PRESRR SLP930
SPECI CYNL 221517Z AUTO 01012KT 2 1/2SM VV015 M14/M17 A2919 RMK AO1 PRESRR SLP930
SPECI CYNL 221512Z AUTO 00009KT 2SM VV010 M14/M16 A2919 RMK AO1 PRESRR SLP929
SPECI CYNL 221511Z AUTO 00010KT 1 1/2SM VV009 M14/M16 A2919 RMK AO1 PRESRR SLP929
SPECI CYNL 221506Z AUTO ///// 1SM VV007 M13/M16 A2918 RMK AO1 PRESRR SLP926
SPECI CYNL 221503Z AUTO ///// 3/4SM VV007 M13/M16 A2918 RMK AO1 PRESRR SLP926
METAR CYNL 221500Z AUTO 01010KT 5/8SM VV007 M13/M16 A2918 RMK AO1 PRESRR SLP925
SPECI CYNL 221446Z AUTO 00009KT 1/2SM VV009 M13/M15 A2917 RMK AO1 PRESRR SLP922
SPECI CYNL 221442Z AUTO 01009G17KT 1/2SM VV013 M13/M15 A2917 RMK AO1 PRESRR SLP921
SPECI CYNL 221440Z AUTO 00009G17KT 5/8SM VV016 M13/M15 A2917 RMK AO1 PRESRR SLP921
SPECI CYNL 221439Z AUTO 01008G17KT 3/4SM VV018 M13/M15 A2917 RMK AO1 PRESRR SLP920
SPECI CYNL 221436Z AUTO 01012KT 1 1/4SM FEW004 SCT018 OVC022 M13/M15 A2916 RMK AO1 PRESRR SLP919
SPECI CYNL 221434Z AUTO 01012KT 1 3/4SM FEW003 SCT009 OVC022 M12/M15 A2916 RMK AO1 PRESRR SLP918
SPECI CYNL 221432Z AUTO 01010KT 2 1/2SM FEW004 OVC022 M12/M15 A2916 RMK AO1 PRESRR SLP917
SPECI CYNL 221424Z AUTO 02009KT 4SM FEW006 OVC021 M12/M15 A2915 RMK AO1 PRESRR SLP915
METAR CYNL 221400Z AUTO 01009G17KT 7SM FEW013 OVC020 M12/M14 A2913 RMK AO1 PRESRR SLP907
SPECI CYNL 221347Z AUTO 00010KT 7SM SCT012 OVC020 M11/M13 A2912 RMK AO1 PRESRR SLP903
SPECI CYNL 221336Z AUTO 01010G16KT 3SM VV012 M11/M13 A2911 RMK AO1 PRESRR SLP898
SPECI CYNL 221335Z AUTO 01009G16KT 2 1/2SM VV012 M11/M13 A2911 RMK AO1 PRESRR SLP898
SPECI CYNL 221333Z AUTO 02009G16KT 1 1/2SM VV012 M11/M13 A2911 RMK AO1 PRESRR SLP897
SPECI CYNL 221323Z AUTO 02010KT 1SM VV012 M10/M12 A2910 RMK AO1 PRESRR SLP894
SPECI CYNL 221321Z AUTO 02010KT 3/4SM VV012 M10/M12 A2910 RMK AO1 PRESRR SLP893
SPECI CYNL 221320Z AUTO 02008KT 1SM VV014 M10/M12 A2910 RMK AO1 PRESRR SLP893
SPECI CYNL 221319Z AUTO 02006KT 1 1/4SM VV016 M10/M12 A2910 RMK AO1 PRESRR SLP892
SPECI CYNL 221318Z AUTO 02005KT 1 1/2SM VV019 M10/M12 A2910 RMK AO1 PRESRR SLP892
SPECI CYNL 221313Z AUTO 02009KT 2SM VV016 M10/M12 A2909 RMK AO1 PRESRR SLP891
SPECI CYNL 221312Z AUTO 01008KT 2SM VV014 M10/M12 A2909 RMK AO1 PRESRR SLP891
SPECI CYNL 221311Z AUTO 01010KT 1 3/4SM VV011 M10/M12 A2909 RMK AO1 PRESRR SLP890
SPECI CYNL 221310Z AUTO 01011KT 1 1/2SM VV009 M10/M12 A2909 RMK AO1 PRESRR SLP890
SPECI CYNL 221306Z AUTO 01010KT 1 1/4SM VV013 M10/M12 A2909 RMK AO1 PRESRR SLP889
METAR CYNL 221300Z AUTO 02009KT 1 1/2SM VV014 M09/M11 A2908 RMK AO1 PRESRR SLP887
SPECI CYNL 221257Z AUTO 01008KT 1 3/4SM VV013 M09/M11 A2908 RMK AO1 PRESRR SLP886
SPECI CYNL 221254Z AUTO 01007KT 2SM VV014 M09/M11 A2908 RMK AO1 PRESRR SLP886
SPECI CYNL 221247Z AUTO 02008KT 2 1/2SM VV015 M09/M11 A2908 RMK AO1 PRESRR SLP883
SPECI CYNL 221244Z AUTO 02009KT 2SM VV011 M09/M11 A2908 RMK AO1 PRESRR SLP883
SPECI CYNL 221242Z AUTO 02009KT 1 1/2SM VV010 M09/M11 A2907 RMK AO1 PRESRR SLP883
SPECI CYNL 221234Z AUTO 00009KT 1SM VV014 M08/M10 A2907 RMK AO1 PRESRR SLP881
SPECI CYNL 221232Z AUTO 01009KT 1 1/4SM SCT008 OVC015 M08/M10 A2907 RMK AO1 PRESRR SLP880
SPECI CYNL 221231Z AUTO 01008KT 1 1/2SM SCT008 OVC015 M08/M10 A2907 RMK AO1 PRESRR SLP879
SPECI CYNL 221230Z AUTO 02008KT 1 3/4SM SCT008 OVC014 M08/M10 A2907 RMK AO1 PRESRR SLP879
SPECI CYNL 221229Z AUTO 02008KT 2 1/2SM SCT008 OVC014 M08/M10 A2907 RMK AO1 PRESRR SLP879
SPECI CYNL 221221Z AUTO 01009KT 3SM SCT008 BKN013 OVC017 M08/M10 A2906 RMK AO1 PRESRR SLP878
SPECI CYNL 221219Z AUTO 00009KT 2SM SCT008 BKN014 OVC017 M08/M10 A2906 RMK AO1 PRESRR SLP878
SPECI CYNL 221218Z AUTO 00009KT 1 3/4SM SCT008 BKN013 OVC017 M08/M10 A2906 RMK AO1 PRESRR SLP877
SPECI CYNL 221207Z AUTO 00006KT 1 3/4SM BKN007 OVC017 M07/M09 A2905 RMK AO1 PRESRR SLP874
SPECI CYNL 221206Z AUTO 00005KT 2SM SCT007 BKN014 OVC017 M07/M09 A2905 RMK AO1 PRESRR SLP873
SPECI CYNL 221205Z AUTO 01005KT 2SM SCT007 OVC016 M07/M09 A2905 RMK AO1 PRESRR SLP873
SPECI CYNL 221201Z AUTO 01005KT 1 1/2SM FEW005 SCT007 OVC015 M07/M09 A2905 RMK AO1 PRESRR SLP872
METAR CYNL 221200Z AUTO 01005KT 1 3/4SM FEW005 SCT007 BKN014 M07/M09 A2905 RMK AO1 PRESRR SLP872
SPECI CYNL 221159Z AUTO 01006KT 1 3/4SM FEW004 SCT007 BKN014 M07/M09 A2905 RMK AO1 PRESRR SLP871
SPECI CYNL 221158Z AUTO 01006KT 2SM FEW004 SCT007 BKN014 M07/M09 A2904 RMK AO1 PRESRR SLP870
SPECI CYNL 221157Z AUTO 01007KT 2SM FEW004 BKN007 BKN014 M07/M09 A2904 RMK AO1 PRESRR SLP870
SPECI CYNL 221155Z AUTO 01006KT 1 1/2SM FEW004 BKN007 OVC014 M07/M08 A2904 RMK AO1 PRESRR SLP870
SPECI CYNL 221148Z AUTO 02007KT 2 1/2SM SCT004 OVC007 M07/M08 A2904 RMK AO1 PRESRR SLP867
SPECI CYNL 221144Z AUTO 02007KT 3SM SCT003 BKN005 OVC007 M07/M08 A2904 RMK AO1 PRESRR SLP867
SPECI CYNL 221142Z AUTO 02008KT 2 1/2SM SCT003 BKN005 OVC007 M07/M08 A2904 RMK AO1 PRESRR SLP867
SPECI CYNL 221112Z AUTO 01006KT 3SM OVC003 M06/M06 A2902 RMK AO1 PRESRR SLP859
SPECI CYNL 221110Z AUTO 01008KT 2 1/2SM OVC003 M06/M06 A2901 RMK AO1 PRESRR SLP858
METAR CYNL 221100Z AUTO 00007KT 3SM OVC003 M05/M06 A2901 RMK AO1 PRESRR SLP857
SPECI CYNL 221050Z AUTO 35006KT 9SM OVC003 M05/M06 A2901 RMK AO1 PRESRR SLP855
SPECI CYNL 221034Z AUTO 35006KT 3SM OVC002 M05/M06 A2900 RMK AO1 PRESRR SLP852
SPECI CYNL 221033Z AUTO 35006KT 2 1/2SM OVC002 M05/M06 A2900 RMK AO1 PRESRR SLP852
SPECI CYNL 221031Z AUTO 35005KT 3SM OVC002 M05/M06 A2900 RMK AO1 PRESRR SLP852
SPECI CYNL 221029Z AUTO 35006KT 2SM OVC002 M05/M06 A2900 RMK AO1 PRESRR SLP852
SPECI CYNL 221026Z AUTO 35007KT 1 1/2SM OVC002 M05/M06 A2900 RMK AO1 PRESRR SLP852
SPECI CYNL 221021Z AUTO 35007KT 2 1/2SM OVC002 M05/M06 A2900 RMK AO1 PRESRR SLP851
SPECI CYNL 221020Z AUTO 35007KT 1 3/4SM OVC002 M05/M06 A2900 RMK AO1 PRESRR SLP851
SPECI CYNL 221018Z AUTO 35007KT 2 1/2SM OVC002 M05/M06 A2900 RMK AO1 PRESRR SLP851
SPECI CYNL 221002Z AUTO 33004KT 6SM OVC002 M05/M05 A2899 RMK AO1 PRESRR SLP849
SPECI CYNL 221001Z AUTO 32004KT 5SM OVC003 M05/M05 A2899 RMK AO1 PRESRR SLP849
METAR CYNL 221000Z AUTO 32005KT 2 1/2SM OVC003 M05/M05 A2899 RMK AO1 PRESRR SLP849
SPECI CYNL 220959Z AUTO 33006KT 2SM OVC003 M05/M05 A2899 RMK AO1 PRESRR SLP849
SPECI CYNL 220958Z AUTO 33007KT 1 3/4SM OVC003 M05/M05 A2899 RMK AO1 PRESRR SLP849
METAR CYNL 220900Z AUTO 27003KT 9SM BKN003 OVC006 M05/M06 A2897 RMK AO1 PRESRR SLP841
SPECI CYNL 220845Z AUTO 31002KT 9SM BKN003 OVC006 M05/M06 A2896 RMK AO1 SLP839
SPECI CYNL 220837Z AUTO 32003KT 7SM OVC002 M05/M06 A2896 RMK AO1 SLP838
SPECI CYNL 220836Z AUTO 32003KT 7SM VV003 M05/M06 A2896 RMK AO1 SLP838
SPECI CYNL 220831Z AUTO 31003KT 3SM VV002 M05/M06 A2896 RMK AO1 SLP837
SPECI CYNL 220830Z AUTO 31003KT 2SM VV002 M05/M06 A2895 RMK AO1 SLP837
SPECI CYNL 220827Z AUTO 30002KT 1 1/2SM VV002 M05/M06 A2895 RMK AO1 SLP836
SPECI CYNL 220825Z AUTO 30002KT 1 1/4SM VV002 M05/M06 A2895 RMK AO1 SLP836
SPECI CYNL 220823Z AUTO 00000KT 1 3/4SM VV002 M05/M06 A2895 RMK AO1 SLP835
SPECI CYNL 220822Z AUTO 00000KT 2SM VV002 M05/M06 A2895 RMK AO1 SLP835
SPECI CYNL 220821Z AUTO 00000KT 1 3/4SM VV002 M05/M06 A2895 RMK AO1 SLP835
SPECI CYNL 220818Z AUTO 00000KT 2SM VV002 M05/M06 A2895 RMK AO1 SLP835
SPECI CYNL 220815Z AUTO 00000KT 1 1/2SM VV002 M06/M06 A2895 RMK AO1 SLP835
SPECI CYNL 220812Z AUTO 00000KT 1SM OVC002 M06/M06 A2895 RMK AO1 SLP834
SPECI CYNL 220810Z AUTO 00000KT 2 1/2SM OVC002 M06/M06 A2895 RMK AO1 SLP834
METAR CYNL 220800Z AUTO 00000KT 4SM OVC002 M06/M07 A2895 RMK AO1 SLP836
SPECI CYNL 220752Z AUTO 34003KT 4SM OVC002 M07/M08 A2895 RMK AO1 SLP838
SPECI CYNL 220751Z AUTO 33003KT 2 1/2SM OVC002 M07/M08 A2895 RMK AO1 SLP838
SPECI CYNL 220750Z AUTO 33003KT 1 1/2SM OVC002 M07/M08 A2895 RMK AO1 SLP838
SPECI CYNL 220749Z AUTO 33003KT 1SM OVC002 M07/M08 A2895 RMK AO1 SLP838
SPECI CYNL 220745Z AUTO 00000KT 1/4SM VV002 M08/M09 A2895 RMK AO1 SLP838
SPECI CYNL 220740Z AUTO 00000KT 1/4SM VV003 M08/M09 A2895 RMK AO1 SLP838
SPECI CYNL 220734Z AUTO 00000KT 1/4SM OVC002 M08/M09 A2895 RMK AO1 SLP838
SPECI CYNL 220732Z AUTO 00000KT 1/2SM FEW002 OVC003 M08/M09 A2895 RMK AO1 SLP838
SPECI CYNL 220729Z AUTO 00000KT 1SM FEW002 OVC003 M08/M09 A2895 RMK AO1 SLP838
SPECI CYNL 220728Z AUTO 00000KT 3/4SM VV003 M08/M09 A2895 RMK AO1 SLP838
SPECI CYNL 220720Z AUTO VRB03KT 1/2SM VV003 M09/M09 A2894 RMK AO1 SLP837
SPECI CYNL 220719Z AUTO 31002KT 1SM VV003 M09/M10 A2894 RMK AO1 SLP836
SPECI CYNL 220718Z AUTO 30002KT 3/4SM VV003 M09/M10 A2894 RMK AO1 SLP836
SPECI CYNL 220709Z AUTO 25003KT 5/8SM VV003 M09/M11 A2894 RMK AO1 SLP836
SPECI CYNL 220708Z AUTO 24003KT 1 1/2SM VV003 M09/M11 A2894 RMK AO1 SLP836
SPECI CYNL 220702Z AUTO 26002KT 2 1/2SM VV003 M09/M10 A2893 RMK AO1 SLP834
METAR CYNL 220700Z AUTO 00000KT 7SM VV003 M09/M10 A2893 RMK AO1 SLP833
SPECI CYNL 220659Z AUTO 00000KT 5SM VV003 M09/M10 A2893 RMK AO1 SLP833
SPECI CYNL 220658Z AUTO 00000KT 1 1/2SM VV003 M09/M10 A2893 RMK AO1 SLP834
SPECI CYNL 220657Z AUTO 29002KT 3/4SM VV003 M09/M10 A2893 RMK AO1 SLP834
SPECI CYNL 220655Z AUTO 30003KT 5/8SM BKN002 M09/M10 A2893 RMK AO1 SLP834
SPECI CYNL 220654Z AUTO 31002KT 1SM BKN002 M09/M10 A2893 RMK AO1 SLP833
SPECI CYNL 220653Z AUTO 31002KT 2SM BKN002 M09/M10 A2893 RMK AO1 SLP833
SPECI CYNL 220644Z AUTO 32004KT 9SM BKN002 M09/M10 A2893 RMK AO1 SLP832
SPECI CYNL 220633Z AUTO 33003KT 9SM FEW003 M09/M10 A2892 RMK AO1 SLP831
SPECI CYNL 220628Z AUTO 00000KT 7SM CLR M09/M11 A2892 RMK AO1 SLP831
SPECI CYNL 220626Z AUTO 33002KT 1/4SM CLR M09/M10 A2892 RMK AO1 SLP831
SPECI CYNL 220622Z AUTO 34002KT 1/8SM CLR M09/M10 A2892 RMK AO1 SLP831
SPECI CYNL 220620Z AUTO 00000KT 1/2SM CLR M09/M11 A2892 RMK AO1 SLP831
SPECI CYNL 220619Z AUTO 00000KT 1 1/4SM CLR M09/M11 A2892 RMK AO1 SLP831
METAR CYNL 220600Z AUTO 34002KT 9SM CLR M08/M09 A2892 RMK AO1 SLP828
METAR CYNL 220500Z AUTO 00000KT 5SM SCT006 M05/M05 A2892 RMK AO1 SLP829
SPECI CYNL 220457Z AUTO 00000KT 5SM SCT006 M05/M05 A2893 RMK AO1 SLP830
SPECI CYNL 220429Z AUTO 00000KT 5SM VV006 M04/M05 A2893 RMK AO1 SLP831
SPECI CYNL 220420Z AUTO 00000KT 5SM SCT007 M04/M05 A2893 RMK AO1 SLP831
METAR CYNL 220400Z AUTO 00000KT 4SM VV008 M04/M04 A2893 RMK AO1 SLP831
SPECI CYNL 220346Z AUTO 00000KT 3SM VV007 M04/M04 A2893 RMK AO1 SLP835
SPECI CYNL 220342Z AUTO 00000KT 2SM VV008 M04/M04 A2893 RMK AO1 SLP835
SPECI CYNL 220335Z AUTO 20002KT 1 1/2SM VV009 M04/M04 A2894 RMK AO1 SLP835
SPECI CYNL 220334Z AUTO 00000KT 1 1/4SM VV009 M04/M04 A2894 RMK AO1 SLP836
SPECI CYNL 220333Z AUTO 00000KT 1 1/2SM VV009 M04/M04 A2894 RMK AO1 SLP836
SPECI CYNL 220329Z AUTO 20002KT 1 1/2SM VV010 M04/M04 A2894 RMK AO1 SLP836
SPECI CYNL 220314Z AUTO 00000KT 1 1/4SM VV011 M03/M04 A2894 RMK AO1 SLP837
SPECI CYNL 220309Z AUTO 20002KT 1 1/2SM VV011 M03/M04 A2894 RMK AO1 SLP838
SPECI CYNL 220304Z AUTO 20002KT 1 1/4SM VV011 M03/M04 A2895 RMK AO1 SLP839
METAR CYNL 220300Z AUTO 20003KT 1 1/2SM VV010 M03/M04 A2895 RMK AO1 SLP839
SPECI CYNL 220238Z AUTO 18003KT 1 3/4SM VV010 M03/M04 A2895 RMK AO1 PRESFR SLP844
SPECI CYNL 220237Z AUTO 18003KT 2SM VV010 M03/M04 A2895 RMK AO1 PRESFR SLP844
SPECI CYNL 220235Z AUTO 18003KT 1 3/4SM VV010 M03/M04 A2895 RMK AO1 PRESFR SLP844
SPECI CYNL 220234Z AUTO 18003KT 2SM VV010 M03/M04 A2895 RMK AO1 PRESFR SLP844
SPECI CYNL 220228Z AUTO 19004KT 2SM VV009 M03/M04 A2895 RMK AO1 PRESFR SLP845
SPECI CYNL 220226Z AUTO 19003KT 2SM VV010 M03/M04 A2895 RMK AO1 PRESFR SLP845
SPECI CYNL 220223Z AUTO 19003KT 1 3/4SM VV010 M03/M04 A2895 RMK AO1 PRESFR SLP845
SPECI CYNL 220219Z AUTO 18003KT 2SM VV010 M03/M04 A2896 RMK AO1 PRESFR SLP846
SPECI CYNL 220207Z AUTO 17004KT 1 1/2SM VV010 M03/M04 A2896 RMK AO1 PRESFR SLP848
SPECI CYNL 220205Z AUTO 17004KT 1 1/4SM VV010 M03/M04 A2896 RMK AO1 PRESFR SLP848
METAR CYNL 220200Z AUTO 17003KT 1 1/2SM VV011 M03/M04 A2896 RMK AO1 PRESFR SLP849
SPECI CYNL 220153Z AUTO 17003KT 1 1/2SM VV011 M03/M04 A2897 RMK AO1 PRESFR SLP849
SPECI CYNL 220151Z AUTO 17003KT 1 1/4SM VV011 M03/M04 A2897 RMK AO1 PRESFR SLP850
SPECI CYNL 220148Z AUTO 17003KT 1 1/2SM VV011 M03/M04 A2897 RMK AO1 PRESFR SLP851
SPECI CYNL 220136Z AUTO 18004KT 1 1/4SM VV012 M03/M04 A2897 RMK AO1 PRESFR SLP852
SPECI CYNL 220127Z AUTO 19005KT 1 3/4SM VV014 M03/M04 A2898 RMK AO1 PRESFR SLP854
SPECI CYNL 220125Z AUTO 19006KT 2SM VV014 M03/M04 A2898 RMK AO1 PRESFR SLP854
SPECI CYNL 220122Z AUTO 19006KT 2 1/2SM VV015 M03/M04 A2898 RMK AO1 PRESFR SLP854
SPECI CYNL 220119Z AUTO 19005KT 2 1/2SM VV014 M03/M04 A2898 RMK AO1 PRESFR SLP854
SPECI CYNL 220112Z AUTO 18006KT 4SM VV010 M03/M04 A2898 RMK AO1 PRESFR SLP855
METAR CYNL 220100Z AUTO 17005KT 4SM BKN008 OVC010 M03/M04 A2899 RMK AO1 PRESFR SLP857
SPECI CYNL 220049Z AUTO 18004KT 3SM VV009 M03/M04 A2899 RMK AO1 PRESFR SLP856
SPECI CYNL 220041Z AUTO 18005KT 2SM VV010 M03/M04 A2900 RMK AO1 PRESFR SLP857
SPECI CYNL 220035Z AUTO 18006KT 1 1/2SM VV010 M03/M04 A2900 RMK AO1 PRESFR SLP858
SPECI CYNL 220033Z AUTO 18007KT 1 1/4SM VV010 M03/M04 A2900 RMK AO1 PRESFR SLP859
SPECI CYNL 220021Z AUTO 18007KT 1 1/4SM VV009 M03/M04 A2900 RMK AO1 PRESFR SLP860
SPECI CYNL 220020Z AUTO 18007KT 1 1/2SM VV008 M03/M04 A2900 RMK AO1 PRESFR SLP860
SPECI CYNL 220004Z AUTO 19006KT 2SM VV008 M03/M04 A2901 RMK AO1 PRESFR SLP862
METAR CYNL 220000Z AUTO 19006KT 1 3/4SM VV008 M03/M04 A2901 RMK AO1 PRESFR SLP863
SPECI CYNL 212348Z AUTO 20006KT 1 3/4SM VV008 M03/M04 A2902 RMK AO1 SLP865
SPECI CYNL 212335Z AUTO 19006KT 2 1/2SM VV007 M03/M04 A2902 RMK AO1 SLP865
SPECI CYNL 212331Z AUTO 19007KT 4SM VV008 M03/M05 A2902 RMK AO1 SLP865
SPECI CYNL 212328Z AUTO 20007KT 4SM FEW007 M03/M05 A2902 RMK AO1 SLP866
METAR CYNL 212300Z AUTO 19007KT 9SM CLR M02/M05 A2904 RMK AO1 SLP871
METAR CYNL 212200Z AUTO 18007KT 9SM CLR M02/M06 A2906 RMK AO1 PRESFR SLP877
METAR CYNL 212100Z AUTO 20009KT 9SM CLR M02/M06 A2909 RMK AO1 PRESFR SLP892
METAR CYNL 212000Z AUTO 18010KT 9SM CLR M03/M06 A2913 RMK AO1 PRESFR SLP903
SPECI CYNL 211928Z AUTO 19008G15KT 9SM SCT009 M02/M06 A2916 RMK AO1 PRESFR SLP913
SPECI CYNL 211922Z AUTO 19010G15KT 9SM SCT010 M02/M06 A2916 RMK AO1 PRESFR SLP913
SPECI CYNL 211920Z AUTO 19010KT 9SM SCT009 BKN011 M02/M06 A2916 RMK AO1 PRESFR SLP914
METAR CYNL 211900Z AUTO 20008KT 9SM BKN008 M04/M06 A2918 RMK AO1 PRESFR SLP920
METAR CYNL 211800Z AUTO 21007KT 9SM SCT006 OVC008 M05/M07 A2921 RMK AO1 PRESFR SLP933
SPECI CYNL 211730Z AUTO 21006KT 9SM BKN009 M05/M07 A2923 RMK AO1 PRESFR SLP938
SPECI CYNL 211727Z AUTO 21004KT 9SM SCT009 M05/M08 A2924 RMK AO1 PRESFR SLP938
METAR CYNL 211700Z AUTO 23004KT 9SM CLR M06/M08 A2924 RMK AO1 PRESFR SLP941
SPECI CYNL 211601Z AUTO 19003KT 7SM FEW001 M08/M11 A2926 RMK AO1 PRESFR SLP953
METAR CYNL 211600Z AUTO 18002KT 2 1/2SM SCT001 M08/M11 A2926 RMK AO1 PRESFR SLP954
SPECI CYNL 211559Z AUTO 00000KT 1 1/4SM SCT001 M08/M11 A2926 RMK AO1 PRESFR SLP953
SPECI CYNL 211558Z AUTO 00000KT 3/4SM SCT001 M09/M11 A2926 RMK AO1 PRESFR SLP952
SPECI CYNL 211555Z AUTO 00000KT 1/4SM SCT001 M09/M11 A2926 RMK AO1 PRESFR SLP954
SPECI CYNL 211554Z AUTO 00000KT 1/8SM SCT001 M09/M11 A2927 RMK AO1 PRESFR SLP954
SPECI CYNL 211553Z AUTO 00000KT 1/4SM SCT001 M09/M11 A2927 RMK AO1 PRESFR SLP955
SPECI CYNL 211549Z AUTO 00000KT 1/4SM BKN001 M11/M13 A2927 RMK AO1 PRESFR SLP957
SPECI CYNL 211525Z AUTO 19005KT 1/8SM VV001 M13/M14 A2928 RMK AO1 PRESFR SLP962
SPECI CYNL 211523Z AUTO 19005KT 1/4SM VV002 M13/M15 A2928 RMK AO1 PRESFR SLP963
SPECI CYNL 211517Z AUTO 19003KT 1/8SM VV002 M13/M15 A2928 RMK AO1 PRESFR SLP964
SPECI CYNL 211512Z AUTO 19004KT 1/2SM VV002 M13/M15 A2928 RMK AO1 PRESFR SLP964
SPECI CYNL 211510Z AUTO 19005KT 2 1/2SM VV002 M13/M15 A2928 RMK AO1 PRESFR SLP964
SPECI CYNL 211504Z AUTO 22004KT 9SM VV002 M12/M15 A2929 RMK AO1 PRESFR SLP965
SPECI CYNL 211503Z AUTO 22003KT 9SM FEW001 SCT003 BKN004 M12/M15 A2929 RMK AO1 PRESFR SLP965
METAR CYNL 211500Z AUTO 22002KT 9SM SCT003 M12/M14 A2929 RMK AO1 PRESFR SLP966
SPECI CYNL 211446Z AUTO 26004KT 9SM SCT003 M13/M15 A2930 RMK AO1 SLP967
SPECI CYNL 211442Z AUTO 27003KT 9SM BKN003 M13/M15 A2930 RMK AO1 SLP968
SPECI CYNL 211431Z AUTO 27003KT 9SM FEW004 M13/M15 A2930 RMK AO1 SLP969
METAR CYNL 211400Z AUTO 24004KT 9SM CLR M12/M14 A2932 RMK AO1 SLP972
METAR CYNL 211300Z AUTO 25003KT 9SM BKN100 M10/M12 A2933 RMK AO1 SLP976
SPECI CYNL 211232Z AUTO 28005KT 9SM SCT005 OVC096 M10/M11 A2934 RMK AO1 SLP977
METAR CYNL 211200Z AUTO 28005KT 9SM BKN007 OVC086 M09/M11 A2934 RMK AO1 SLP977
METAR CYNL 211100Z AUTO 28004KT 9SM OVC008 M10/M11 A2934 RMK AO1 SLP977
SPECI CYNL 211022Z AUTO 25004KT 9SM BKN009 M12/M13 A2935 RMK AO1 SLP979
SPECI CYNL 211010Z AUTO 25003KT 9SM SCT011 BKN014 M12/M13 A2934 RMK AO1 SLP978
METAR CYNL 211000Z AUTO 23004KT 9SM FEW010 M12/M13 A2935 RMK AO1 SLP980
METAR CYNL 210900Z AUTO 24004KT 9SM FEW140 M10/M12 A2934 RMK AO1 SLP975
METAR CYNL 210800Z AUTO 23002KT 9SM CLR M10/M12 A2934 RMK AO1 SLP973
METAR CYNL 210700Z AUTO 27005KT 9SM CLR M08/M10 A2933 RMK AO1 SLP968
METAR CYNL 210600Z AUTO 28008KT 9SM CLR M07/M10 A2934 RMK AO1 SLP969
METAR CYNL 210500Z AUTO 25006KT 9SM CLR M09/M11 A2933 RMK AO1 SLP973
METAR CYNL 210400Z AUTO 24003KT 9SM CLR M07/M10 A2933 RMK AO1 SLP974
METAR CYNL 210300Z AUTO 26005KT 9SM FEW094 M06/M09 A2933 RMK AO1 SLP976
SPECI CYNL 210217Z AUTO 26006KT 8SM FEW006 SCT088 M05/M09 A2933 RMK AO1 SLP979
METAR CYNL 210200Z AUTO 26006KT 9SM BKN088 M05/M09 A2933 RMK AO1 SLP979
METAR CYNL 210100Z AUTO 25004KT 9SM OVC080 M05/M09 A2933 RMK AO1 SLP979
METAR CYNL 210000Z AUTO 27004KT 9SM SCT068 M05/M09 A2931 RMK AO1 SLP972
METAR CYNL 202300Z AUTO 24004KT 9SM CLR M03/M08 A2930 RMK AO1 SLP965
METAR CYNL 202200Z AUTO 24006KT 9SM CLR M03/M08 A2928 RMK AO1 SLP957
METAR CYNL 202100Z AUTO 23004KT 9SM CLR M02/M08 A2927 RMK AO1 SLP953
METAR CYNL 202000Z AUTO 22006KT 9SM CLR M01/M08 A2927 RMK AO1 SLP950
METAR CYNL 201900Z AUTO 22004KT 9SM CLR M02/M08 A2927 RMK AO1 SLP953
METAR CYNL 201800Z AUTO 21003KT 9SM CLR M04/M10 A2927 RMK AO1 SLP956
METAR CYNL 201700Z AUTO 23004KT 9SM CLR M08/M11 A2928 RMK AO1 SLP963
METAR CYNL 201600Z AUTO 24004KT 9SM CLR M11/M14 A2930 RMK AO1 SLP971
METAR CYNL 201500Z AUTO 23004KT 9SM CLR M14/M17 A2930 RMK AO1 SLP973
METAR CYNL 201400Z AUTO 25004KT 9SM CLR M15/M17 A2932 RMK AO1 SLP979
METAR CYNL 201300Z AUTO 25003KT 9SM CLR M15/M17 A2932 RMK AO1 SLP980
METAR CYNL 201200Z AUTO 21004KT 9SM CLR M14/M16 A2934 RMK AO1 SLP984
METAR CYNL 201100Z AUTO 20005KT 9SM CLR M13/M15 A2934 RMK AO1 SLP984
METAR CYNL 201000Z AUTO 19005KT 9SM CLR M13/M15 A2936 RMK AO1 SLP987
METAR CYNL 200900Z AUTO 20004KT 9SM CLR M12/M15 A2937 RMK AO1 PRESFR SLP992
METAR CYNL 200800Z AUTO 19005KT 9SM CLR M12/M15 A2940 RMK AO1 SLP997
METAR CYNL 200700Z AUTO 19005KT 9SM CLR M12/M15 A2941 RMK AO1 SLP003
METAR CYNL 200600Z AUTO 21004KT 9SM CLR M11/M14 A2942 RMK AO1 SLP009
METAR CYNL 200500Z AUTO 21004KT 9SM CLR M10/M13 A2944 RMK AO1 SLP013
METAR CYNL 200400Z AUTO 21007KT 9SM FEW088 M09/M13 A2943 RMK AO1 SLP015
METAR CYNL 200300Z AUTO 21009G15KT 9SM CLR M08/M13 A2944 RMK AO1 SLP020
METAR CYNL 200200Z AUTO 21007KT 9SM CLR M08/M13 A2946 RMK AO1 SLP029
METAR CYNL 200100Z AUTO 18007KT 9SM CLR M08/M13 A2947 RMK AO1 SLP032
METAR CYNL 200000Z AUTO 20009KT 9SM CLR M06/M12 A2946 RMK AO1 SLP028
METAR CYNL 192300Z AUTO 19011KT 9SM CLR M05/M12 A2948 RMK AO1 SLP030
METAR CYNL 192200Z AUTO 19007KT 9SM CLR M05/M12 A2949 RMK AO1 SLP036
METAR CYNL 192100Z AUTO 19013G18KT 9SM CLR M03/M12 A2949 RMK AO1 PRESFR SLP034
METAR CYNL 192000Z AUTO 20013G20KT 9SM CLR M04/M13 A2952 RMK AO1 PRESFR SLP044
METAR CYNL 191900Z AUTO 19009G18KT 9SM CLR M06/M14 A2955 RMK AO1 PRESFR SLP058
METAR CYNL 191800Z AUTO 20010G17KT 9SM CLR M07/M15 A2957 RMK AO1 SLP067
METAR CYNL 191700Z AUTO 20011KT 9SM CLR M11/M17 A2959 RMK AO1 SLP078
METAR CYNL 191600Z AUTO 20008KT 9SM CLR M13/M19 A2961 RMK AO1 SLP085
METAR CYNL 191500Z AUTO 19009KT 9SM CLR M15/M20 A2962 RMK AO1 PRESFR SLP092
METAR CYNL 191400Z AUTO 20007KT 9SM CLR M16/M21 A2964 RMK AO1 PRESFR SLP100
METAR CYNL 191300Z AUTO 20007KT 9SM CLR M16/M20 A2966 RMK AO1 SLP108
METAR CYNL 191200Z AUTO 21006KT 9SM CLR M15/M20 A2968 RMK AO1 PRESFR SLP112
METAR CYNL 191100Z AUTO 20009KT 9SM CLR M15/M20 A2970 RMK AO1 PRESFR SLP119
METAR CYNL 191000Z AUTO 20008KT 9SM FEW110 M15/M19 A2973 RMK AO1 PRESFR SLP128
METAR CYNL 190900Z AUTO 19010KT 9SM OVC100 M15/M19 A2975 RMK AO1 PRESFR SLP133
METAR CYNL 190800Z AUTO 19009KT 9SM BKN120 M15/M19 A2977 RMK AO1 PRESFR SLP140
METAR CYNL 190700Z AUTO 20009G16KT 9SM BKN120 M15/M19 A2980 RMK AO1 PRESFR SLP149
METAR CYNL 190600Z AUTO 20009KT 9SM FEW110 M15/M19 A2983 RMK AO1 SLP161
METAR CYNL 190500Z AUTO 20010G18KT 9SM CLR M15/M19 A2985 RMK AO1 SLP173
METAR CYNL 190400Z AUTO 20009KT 9SM CLR M15/M19 A2986 RMK AO1 PRESFR SLP181
METAR CYNL 190300Z AUTO 20009KT 9SM CLR M14/M19 A2989 RMK AO1 PRESFR SLP200
METAR CYNL 190200Z AUTO 20011KT 9SM CLR M14/M19 A2993 RMK AO1 SLP217
METAR CYNL 190100Z AUTO 19006KT 9SM CLR M15/M20 A2995 RMK AO1 SLP228
METAR CYNL 190000Z AUTO 19009KT 9SM CLR M15/M20 A2997 RMK AO1 PRESFR SLP233
METAR CYNL 182300Z AUTO 20007KT 9SM CLR M13/M19 A2999 RMK AO1 PRESFR SLP242
METAR CYNL 182200Z AUTO 20008KT 9SM CLR M11/M19 A3002 RMK AO1 PRESFR SLP248
METAR CYNL 182100Z AUTO 22008KT 9SM CLR M11/M19 A3004 RMK AO1 PRESFR SLP254
METAR CYNL 182000Z AUTO 23007KT 9SM SCT088 M12/M19 A3007 RMK AO1 PRESFR SLP267
METAR CYNL 181900Z AUTO 23005KT 9SM FEW096 M14/M21 A3010 RMK AO1 SLP280
METAR CYNL 181800Z AUTO 22004KT 9SM CLR M18/M24 A3012 RMK AO1 SLP290
METAR CYNL 181700Z AUTO 23005KT 9SM CLR M22/M26 A3013 RMK AO1 SLP296
METAR CYNL 181600Z AUTO 24004KT 9SM CLR M26/M30 A3013 RMK AO1 SLP299
METAR CYNL 181500Z AUTO 24006KT 9SM CLR M30/M35 A3013 RMK AO1 SLP307
METAR CYNL 181400Z AUTO 21002KT 9SM CLR M32/M37 A3014 RMK AO1 PRESFR SLP314
METAR CYNL 181300Z AUTO 23005KT 9SM CLR M32/M36 A3016 RMK AO1 SLP316
METAR CYNL 181200Z AUTO 25003KT 9SM CLR M33/M38 A3019 RMK AO1 SLP324
METAR CYNL 181100Z AUTO 21003KT 9SM CLR M33/M37 A3019 RMK AO1 SLP321
METAR CYNL 181000Z AUTO 25005KT 9SM CLR M32/M37 A3019 RMK AO1 SLP317
METAR CYNL 180900Z AUTO 24004KT 9SM CLR M32/M37 A3019 RMK AO1 SLP315
METAR CYNL 180800Z AUTO 24003KT 9SM CLR M32/M37 A3018 RMK AO1 SLP310
METAR CYNL 180700Z AUTO 00000KT 9SM CLR M31/M36 A3017 RMK AO1 SLP306
METAR CYNL 180600Z AUTO 28002KT 9SM CLR M30/M34 A3017 RMK AO1 SLP303
METAR CYNL 180500Z AUTO 31002KT 9SM CLR M28/M32 A3017 RMK AO1 SLP302
METAR CYNL 180400Z AUTO 00000KT 9SM CLR M29/M33 A3017 RMK AO1 SLP305
METAR CYNL 180300Z AUTO 32002KT 9SM CLR M28/M32 A3016 RMK AO1 SLP302
METAR CYNL 180200Z AUTO 32003KT 9SM CLR M25/M29 A3015 RMK AO1 SLP298
METAR CYNL 180100Z AUTO 29003KT 9SM CLR M24/M28 A3013 RMK AO1 SLP291
METAR CYNL 180000Z AUTO 30004KT 9SM CLR M21/M25 A3012 RMK AO1 SLP287
METAR CYNL 172300Z AUTO 29007KT 9SM CLR M19/M24 A3011 RMK AO1 PRESRR SLP282
METAR CYNL 172200Z AUTO 30007KT 9SM CLR M18/M23 A3009 RMK AO1 SLP273
METAR CYNL 172100Z AUTO 30006KT 9SM CLR M17/M23 A3007 RMK AO1 SLP268
METAR CYNL 172000Z AUTO 31007KT 9SM CLR M17/M22 A3006 RMK AO1 SLP261
METAR CYNL 171900Z AUTO 29006KT 9SM CLR M17/M22 A3005 RMK AO1 SLP258
SPECI CYNL 171803Z AUTO 30009KT 9SM SCT020 M19/M22 A3003 RMK AO1 SLP253
METAR CYNL 171800Z AUTO 30007KT 9SM BKN020 M19/M23 A3003 RMK AO1 SLP253
METAR CYNL 171700Z AUTO ///// 9SM OVC019 M20/M23 A3002 RMK AO1 SLP249
METAR CYNL 171600Z AUTO ///// 9SM OVC018 M21/M24 A3000 RMK AO1 SLP243
METAR CYNL 171500Z AUTO ///// 9SM OVC016 M22/M25 A2998 RMK AO1 SLP241
METAR CYNL 171400Z AUTO ///// 9SM OVC018 M23/M27 A2997 RMK AO1 SLP235
METAR CYNL 171300Z AUTO 28004KT 9SM BKN020 M25/M29 A2995 RMK AO1 SLP229
SPECI CYNL 171259Z AUTO 28004KT 9SM BKN020 M25/M29 A2995 RMK AO1 SLP227
METAR CYNL 171200Z AUTO 25003KT 9SM CLR M29/M33 A2994 RMK AO1 SLP227
METAR CYNL 171100Z AUTO 25004KT 9SM CLR M28/M32 A2993 RMK AO1 SLP215
METAR CYNL 171000Z AUTO 26005KT 9SM CLR M28/M32 A2992 RMK AO1 SLP208
METAR CYNL 170900Z AUTO 25005KT 9SM CLR M28/M31 A2991 RMK AO1 SLP203
METAR CYNL 170800Z AUTO 25006KT 9SM CLR M27/M31 A2990 RMK AO1 SLP199
METAR CYNL 170700Z AUTO 25005KT 9SM CLR M26/M30 A2989 RMK AO1 SLP193
METAR CYNL 170600Z AUTO 25004KT 9SM CLR M26/M29 A2988 RMK AO1 SLP192
METAR CYNL 170500Z AUTO 24004KT 9SM CLR M25/M29 A2988 RMK AO1 SLP194
METAR CYNL 170400Z AUTO 24003KT 9SM CLR M27/M31 A2988 RMK AO1 SLP199
METAR CYNL 170300Z AUTO 24004KT 9SM CLR M25/M29 A2987 RMK AO1 SLP199
METAR CYNL 170200Z AUTO 24003KT 9SM CLR M23/M26 A2986 RMK AO1 SLP205
METAR CYNL 170100Z AUTO 23004KT 9SM CLR M20/M24 A2986 RMK AO1 SLP200
METAR CYNL 170000Z AUTO 21004KT 9SM CLR M15/M22 A2985 RMK AO1 SLP191
METAR CYNL 162300Z AUTO 21004KT 9SM CLR M12/M20 A2985 RMK AO1 SLP185
METAR CYNL 162200Z AUTO 21006KT 9SM CLR M11/M21 A2985 RMK AO1 SLP181
METAR CYNL 162100Z AUTO 20008KT 9SM CLR M11/M22 A2985 RMK AO1 SLP179
METAR CYNL 162000Z AUTO 20007KT 9SM CLR M11/M21 A2986 RMK AO1 SLP180
METAR CYNL 161900Z AUTO 21005KT 9SM CLR M13/M22 A2987 RMK AO1 SLP185
METAR CYNL 161800Z AUTO 20004KT 9SM CLR M15/M22 A2988 RMK AO1 SLP194
METAR CYNL 161700Z AUTO 00000KT 9SM CLR M17/M23 A2988 RMK AO1 SLP192
METAR CYNL 161600Z AUTO 19003KT 9SM CLR M21/M25 A2990 RMK AO1 SLP201
METAR CYNL 161500Z AUTO 00000KT 9SM CLR M29/M33 A2990 RMK AO1 SLP215
METAR CYNL 161400Z AUTO ///// 9SM CLR M30/M34 A2991 RMK AO1 SLP217
SPECI CYNL 161318Z AUTO 00000KT 4SM CLR M30/M34 A2992 RMK AO1 SLP219
SPECI CYNL 161315Z AUTO 00000KT 2 1/2SM CLR M30/M34 A2992 RMK AO1 SLP219
METAR CYNL 161300Z AUTO 00000KT 9SM CLR M30/M34 A2992 RMK AO1 SLP220
METAR CYNL 161200Z AUTO 20003KT 9SM CLR M30/M34 A2993 RMK AO1 SLP219
METAR CYNL 161100Z AUTO 00000KT 9SM CLR M28/M31 A2993 RMK AO1 SLP215
METAR CYNL 161000Z AUTO 00000KT 9SM CLR M27/M30 A2995 RMK AO1 SLP215
METAR CYNL 160900Z AUTO 20006KT 9SM CLR M24/M27 A2996 RMK AO1 SLP214
METAR CYNL 160800Z AUTO 19004KT 9SM CLR M23/M26 A2996 RMK AO1 SLP215
METAR CYNL 160700Z AUTO 17005KT 9SM CLR M24/M27 A2997 RMK AO1 SLP216
METAR CYNL 160600Z AUTO 21003KT 9SM CLR M21/M25 A2998 RMK AO1 SLP219
METAR CYNL 160500Z AUTO 22006KT 9SM CLR M19/M23 A2999 RMK AO1 SLP225
METAR CYNL 160400Z AUTO 20005KT 9SM CLR M20/M23 A3000 RMK AO1 SLP235
METAR CYNL 160300Z AUTO 19003KT 9SM CLR M20/M23 A3001 RMK AO1 SLP245
METAR CYNL 160200Z AUTO 19003KT 9SM CLR M18/M22 A3003 RMK AO1 SLP259
METAR CYNL 160100Z AUTO 16005KT 9SM CLR M17/M21 A3004 RMK AO1 SLP262
METAR CYNL 160000Z AUTO 17006KT 9SM CLR M15/M21 A3005 RMK AO1 SLP262
METAR CYNL 152300Z AUTO 18006KT 9SM CLR M12/M19 A3006 RMK AO1 SLP259
METAR CYNL 152200Z AUTO 17005KT 9SM CLR M11/M18 A3008 RMK AO1 SLP260
METAR CYNL 152100Z AUTO 17005KT 9SM CLR M11/M17 A3009 RMK AO1 SLP264
METAR CYNL 152000Z AUTO 18004KT 9SM CLR M10/M16 A3010 RMK AO1 SLP268
METAR CYNL 151900Z AUTO 19003KT 9SM CLR M12/M16 A3012 RMK AO1 SLP275
METAR CYNL 151800Z AUTO 17002KT 9SM CLR M15/M18 A3014 RMK AO1 SLP287
METAR CYNL 151700Z AUTO 00000KT 9SM CLR M19/M23 A3015 RMK AO1 SLP296
METAR CYNL 151600Z AUTO 24004KT 9SM CLR M24/M28 A3016 RMK AO1 SLP306
METAR CYNL 151500Z AUTO 00000KT 9SM CLR M31/M35 A3017 RMK AO1 SLP316
METAR CYNL 151400Z AUTO 24003KT 9SM CLR M33/M37 A3018 RMK AO1 SLP322
METAR CYNL 151300Z AUTO 23003KT 9SM CLR M31/M36 A3019 RMK AO1 SLP324
METAR CYNL 151200Z AUTO 25005KT 9SM CLR M28/M33 A3020 RMK AO1 SLP320
METAR CYNL 151100Z AUTO 24005KT 9SM CLR M27/M31 A3021 RMK AO1 SLP316
METAR CYNL 151000Z AUTO 24005KT 9SM CLR M27/M31 A3022 RMK AO1 SLP316
METAR CYNL 150900Z AUTO 25005KT 9SM CLR M27/M31 A3024 RMK AO1 SLP319
METAR CYNL 150800Z AUTO 25005KT 9SM CLR M26/M30 A3025 RMK AO1 SLP324
METAR CYNL 150700Z AUTO 25005KT 9SM CLR M27/M30 A3026 RMK AO1 SLP327
METAR CYNL 150600Z AUTO 24003KT 9SM CLR M27/M31 A3027 RMK AO1 SLP334
METAR CYNL 150500Z AUTO 24003KT 9SM CLR M27/M31 A3028 RMK AO1 SLP342
METAR CYNL 150400Z AUTO 23004KT 9SM CLR M25/M29 A3029 RMK AO1 SLP348
METAR CYNL 150300Z AUTO 24004KT 9SM CLR M25/M29 A3031 RMK AO1 SLP355
METAR CYNL 150200Z AUTO 24004KT 9SM CLR M25/M29 A3032 RMK AO1 SLP367
METAR CYNL 150100Z AUTO 00000KT 9SM CLR M23/M27 A3033 RMK AO1 SLP367
METAR CYNL 150000Z AUTO 23003KT 9SM CLR M19/M22 A3034 RMK AO1 SLP364
METAR CYNL 142300Z AUTO 30002KT 9SM CLR M15/M18 A3036 RMK AO1 SLP364
METAR CYNL 142200Z AUTO 27006KT 9SM CLR M15/M18 A3036 RMK AO1 SLP365
METAR CYNL 142100Z AUTO 27005KT 9SM CLR M15/M18 A3037 RMK AO1 SLP367
SPECI CYNL 142021Z AUTO 30005KT 9SM SCT005 M15/M18 A3037 RMK AO1 SLP367
SPECI CYNL 142009Z AUTO 31005KT 9SM BKN005 M15/M19 A3037 RMK AO1 SLP368
SPECI CYNL 142008Z AUTO 30005KT 9SM SCT005 M15/M19 A3037 RMK AO1 SLP368
METAR CYNL 142000Z AUTO 29005KT 9SM VV005 M15/M19 A3037 RMK AO1 SLP368
SPECI CYNL 141950Z AUTO 30005KT 9SM VV005 M16/M19 A3037 RMK AO1 PRESFR SLP368
SPECI CYNL 141945Z AUTO 26005KT 9SM FEW005 M16/M19 A3037 RMK AO1 PRESFR SLP368
METAR CYNL 141900Z AUTO 27005KT 9SM CLR M17/M20 A3038 RMK AO1 PRESFR SLP374
METAR CYNL 141800Z AUTO 25003KT 9SM CLR M19/M23 A3041 RMK AO1 SLP384
METAR CYNL 141700Z AUTO 27003KT 9SM CLR M22/M26 A3041 RMK AO1 SLP389
METAR CYNL 141600Z AUTO 27004KT 9SM CLR M25/M29 A3042 RMK AO1 SLP394
SPECI CYNL 141523Z AUTO 00000KT 9SM SCT002 M28/M32 A3042 RMK AO1 SLP400
METAR CYNL 141500Z AUTO 00000KT 9SM VV002 M30/M34 A3043 RMK AO1 SLP403
SPECI CYNL 141447Z AUTO 26003KT 9SM VV002 M29/M34 A3043 RMK AO1 SLP403
METAR CYNL 141400Z AUTO 26004KT 9SM VV004 M30/M34 A3043 RMK AO1 SLP404
SPECI CYNL 141338Z AUTO 26004KT 9SM VV003 M29/M33 A3044 RMK AO1 SLP406
METAR CYNL 141300Z AUTO 26004KT 9SM FEW003 M29/M34 A3044 RMK AO1 SLP406
SPECI CYNL 141242Z AUTO 27003KT 9SM SCT003 M29/M33 A3043 RMK AO1 SLP405
SPECI CYNL 141224Z AUTO 27003KT 9SM VV003 M29/M33 A3043 RMK AO1 SLP405
SPECI CYNL 141220Z AUTO 26003KT 9SM FEW003 M29/M33 A3044 RMK AO1 SLP406
METAR CYNL 141200Z AUTO 26004KT 9SM CLR M29/M33 A3044 RMK AO1 SLP406
SPECI CYNL 141107Z AUTO 26004KT 9SM SCT002 M29/M33 A3044 RMK AO1 SLP407
METAR CYNL 141100Z AUTO 26004KT 9SM VV002 M29/M33 A3045 RMK AO1 SLP407
SPECI CYNL 141052Z AUTO 26004KT 9SM VV002 M29/M33 A3045 RMK AO1 SLP407
SPECI CYNL 141050Z AUTO 26004KT 9SM BKN003 M29/M33 A3045 RMK AO1 SLP407
SPECI CYNL 141043Z AUTO 27004KT 9SM SCT003 M29/M34 A3045 RMK AO1 SLP408
SPECI CYNL 141038Z AUTO 27004KT 9SM VV003 M29/M33 A3045 RMK AO1 SLP408
SPECI CYNL 141022Z AUTO 26004KT 9SM FEW003 M29/M33 A3045 RMK AO1 SLP408
METAR CYNL 141000Z AUTO 26003KT 9SM CLR M29/M33 A3045 RMK AO1 SLP406
METAR CYNL 140900Z AUTO 27002KT 9SM CLR M28/M32 A3046 RMK AO1 SLP409
METAR CYNL 140800Z AUTO 28003KT 9SM CLR M27/M31 A3046 RMK AO1 SLP406
SPECI CYNL 140734Z AUTO 27003KT 9SM SCT005 M27/M30 A3046 RMK AO1 SLP408
METAR CYNL 140700Z AUTO 28004KT 9SM VV005 M26/M30 A3047 RMK AO1 SLP408
METAR CYNL 140600Z AUTO 29004KT 9SM OVC005 M26/M30 A3047 RMK AO1 SLP409
SPECI CYNL 140544Z AUTO 29004KT 9SM BKN005 OVC007 M26/M29 A3047 RMK AO1 SLP411
SPECI CYNL 140539Z AUTO 29004KT 9SM BKN004 OVC006 M26/M29 A3047 RMK AO1 SLP410
METAR CYNL 140500Z AUTO 30003KT 9SM OVC006 M25/M29 A3047 RMK AO1 SLP409
METAR CYNL 140400Z AUTO 30005KT 9SM OVC006 M25/M29 A3047 RMK AO1 SLP410
METAR CYNL 140300Z AUTO 31005KT 9SM OVC006 M25/M29 A3048 RMK AO1 SLP415
METAR CYNL 140200Z AUTO 30005KT 9SM OVC007 M25/M29 A3048 RMK AO1 SLP418
METAR CYNL 140100Z AUTO 30007KT 9SM OVC008 M25/M28 A3048 RMK AO1 SLP417
METAR CYNL 140000Z AUTO 29007KT 9SM OVC009 M24/M28 A3048 RMK AO1 SLP417
METAR CYNL 132300Z AUTO 30006KT 9SM OVC009 M23/M27 A3048 RMK AO1 SLP415
SPECI CYNL 132243Z AUTO 29007KT 9SM OVC009 M23/M26 A3048 RMK AO1 SLP414
METAR CYNL 132200Z AUTO ///// 6SM OVC011 M22/M25 A3048 RMK AO1 SLP414
SPECI CYNL 132150Z AUTO ///// 9SM FEW008 OVC012 M22/M25 A3048 RMK AO1 SLP415
METAR CYNL 132100Z AUTO ///// 9SM OVC010 M21/M25 A3048 RMK AO1 SLP413
SPECI CYNL 132046Z AUTO 33005KT 9SM BKN009 OVC011 M21/M25 A3048 RMK AO1 SLP413
SPECI CYNL 132045Z AUTO ///// 9SM OVC010 M21/M25 A3048 RMK AO1 SLP413
SPECI CYNL 132032Z AUTO 30009KT 9SM BKN009 OVC011 M22/M26 A3048 RMK AO1 SLP414
SPECI CYNL 132021Z AUTO ///// 9SM FEW007 OVC010 M22/M25 A3048 RMK AO1 SLP413
METAR CYNL 132000Z AUTO 31005KT 9SM BKN008 OVC013 M22/M26 A3048 RMK AO1 SLP415
METAR CYNL 131900Z AUTO 29008KT 9SM OVC008 M23/M27 A3049 RMK AO1 SLP418
SPECI CYNL 131809Z AUTO 32007KT 7SM BKN009 OVC011 M24/M27 A3050 RMK AO1 SLP421
METAR CYNL 131800Z AUTO 31005KT 7SM OVC010 M24/M28 A3050 RMK AO1 SLP421
SPECI CYNL 131737Z AUTO 30008KT 9SM BKN012 OVC019 M24/M28 A3049 RMK AO1 SLP420
SPECI CYNL 131732Z AUTO 30007KT 9SM SCT012 BKN015 OVC019 M24/M28 A3049 RMK AO1 SLP421
METAR CYNL 131700Z AUTO 31009KT 9SM BKN013 OVC016 M25/M29 A3049 RMK AO1 SLP420